Time,TemperatureF,DewpointF,PressureIn,WindDirection,WindDirectionDegrees,WindSpeedMPH,WindSpeedGustMPH,Humidity,HourlyPrecipIn,Conditions,Clouds,dailyrainin,SoftwareType,DateUTC
2013-11-24 00:00:00,18.3,-4.2,30.41,NW,315,2.8,2.8,36,0.00,RA,,0.00,WeatherDisplay:10.37,2013-11-24 05:00:00,
2013-11-24 00:01:00,18.3,-4.2,30.41,NNW,337,2.8,2.8,36,0.00,RA,,0.00,WeatherDisplay:10.37,2013-11-24 05:01:00,
2013-11-24 00:06:00,18.5,-4.1,30.45,NNW,337,2.8,2.8,36,0.00,RA,,0.00,WeatherDisplay:10.37,2013-11-24 05:06:00,
2013-11-24 00:07:00,18.5,-4.1,30.45,WNW,292,2.8,2.8,36,0.00,RA,,0.00,WeatherDisplay:10.37,2013-11-24 05:07:00,
2013-11-24 00:11:00,18.5,-3.5,30.49,NW,315,2.8,2.8,37,0.00,CLR,,0.00,WeatherDisplay:10.37,2013-11-24 05:11:00,
2013-11-24 00:12:00,18.5,-3.5,30.50,NW,315,2.8,2.8,37,0.00,CLR,,0.00,WeatherDisplay:10.37,2013-11-24 05:12:00,
2013-11-24 00:16:00,18.5,-4.1,30.53,WNW,292,2.8,2.8,36,0.00,CLR,,0.00,WeatherDisplay:10.37,2013-11-24 05:16:00,
2013-11-24 00:17:00,18.5,-4.1,30.53,WNW,292,2.8,2.8,36,0.00,CLR,,0.00,WeatherDisplay:10.37,2013-11-24 05:17:00,
2013-11-24 00:21:00,18.5,-4.1,30.54,WNW,292,2.8,2.8,36,0.00,CLR,,0.00,WeatherDisplay:10.37,2013-11-24 05:21:00,
2013-11-24 00:22:00,18.5,-4.1,30.51,WNW,292,2.3,2.3,36,0.00,CLR,,0.00,WeatherDisplay:10.37,2013-11-24 05:22:00,
2013-11-24 00:27:00,18.7,-3.3,30.45,West,270,2.8,2.8,37,0.00,CLR,,0.00,WeatherDisplay:10.37,2013-11-24 05:27:00,
2013-11-24 00:28:00,18.7,-3.3,30.45,NNW,337,2.8,2.8,37,0.00,CLR,,0.00,WeatherDisplay:10.37,2013-11-24 05:28:00,
2013-11-24 00:32:00,18.9,-3.2,30.47,WNW,292,2.8,2.8,37,0.00,CLR,,0.00,WeatherDisplay:10.37,2013-11-24 05:32:00,
2013-11-24 00:33:00,18.9,-3.2,30.47,WNW,292,2.8,2.8,37,0.00,CLR,,0.00,WeatherDisplay:10.37,2013-11-24 05:33:00,
2013-11-24 00:37:00,19.0,-3.0,30.40,WNW,292,2.8,2.8,37,0.00,CLR,,0.00,WeatherDisplay:10.37,2013-11-24 05:37:00,
2013-11-24 00:38:00,19.0,-3.0,30.38,WNW,292,2.8,2.8,37,0.00,CLR,,0.00,WeatherDisplay:10.37,2013-11-24 05:38:00,
2013-11-24 00:39:00,19.0,-3.0,30.38,WNW,292,2.8,2.8,37,0.00,CLR,,0.00,WeatherDisplay:10.37,2013-11-24 05:39:00,
2013-11-24 00:42:00,19.0,-3.0,30.42,NW,315,2.8,2.8,37,0.00,CLR,,0.00,WeatherDisplay:10.37,2013-11-24 05:42:00,
2013-11-24 00:43:00,19.2,-2.8,30.42,NW,315,2.8,2.8,37,0.00,CLR,,0.00,WeatherDisplay:10.37,2013-11-24 05:43:00,
2013-11-24 00:44:00,19.2,-2.8,30.43,NW,315,2.8,2.8,37,0.00,CLR,,0.00,WeatherDisplay:10.37,2013-11-24 05:44:00,
2013-11-24 00:47:00,19.2,-2.8,30.42,WNW,292,2.8,2.8,37,0.00,CLR,,0.00,WeatherDisplay:10.37,2013-11-24 05:47:00,
2013-11-24 00:48:00,19.2,-2.8,30.44,WNW,292,2.8,2.8,37,0.00,CLR,,0.00,WeatherDisplay:10.37,2013-11-24 05:48:00,
2013-11-24 00:49:00,15.8,-5.9,30.44,WNW,292,2.8,2.8,37,0.00,CLR,,0.00,WeatherDisplay:10.37,2013-11-24 05:49:00,
2013-11-24 00:53:00,15.8,-5.4,30.33,NW,315,2.8,2.8,38,0.00,CLR,,0.00,WeatherDisplay:10.37,2013-11-24 05:53:00,
2013-11-24 00:54:00,15.8,-5.4,30.33,WNW,292,2.8,2.8,38,0.00,CLR,,0.00,WeatherDisplay:10.37,2013-11-24 05:54:00,
2013-11-24 00:55:00,15.8,-5.4,30.39,WNW,292,2.8,2.8,38,0.00,CLR,,0.00,WeatherDisplay:10.37,2013-11-24 05:55:00,
2013-11-24 00:57:00,15.8,-5.9,30.40,West,270,2.8,2.8,37,0.00,CLR,,0.00,WeatherDisplay:10.37,2013-11-24 05:57:00,
2013-11-24 00:58:00,16.0,-5.8,30.40,West,270,2.8,2.8,37,0.00,CLR,,0.00,WeatherDisplay:10.37,2013-11-24 05:58:00,
2013-11-24 00:59:00,16.0,-5.8,30.41,West,270,2.8,2.8,37,0.00,CLR,,0.00,WeatherDisplay:10.37,2013-11-24 05:59:00,
2013-11-24 01:02:00,16.0,-5.8,30.43,WNW,292,2.8,2.8,37,0.00,CLR,,0.00,WeatherDisplay:10.37,2013-11-24 06:02:00,
2013-11-24 01:03:00,16.0,-5.2,30.45,WNW,292,2.8,2.8,38,0.00,CLR,,0.00,WeatherDisplay:10.37,2013-11-24 06:03:00,
2013-11-24 01:04:00,16.0,-5.2,30.45,WNW,292,2.8,2.8,38,0.00,CLR,,0.00,WeatherDisplay:10.37,2013-11-24 06:04:00,
2013-11-24 01:05:00,16.0,-5.2,30.41,WNW,292,2.8,2.8,38,0.00,CLR,,0.00,WeatherDisplay:10.37,2013-11-24 06:05:00,
2013-11-24 01:08:00,16.2,-5.0,30.42,West,270,2.8,2.8,38,0.00,CLR,,0.00,WeatherDisplay:10.37,2013-11-24 06:08:00,
2013-11-24 01:09:00,16.2,-5.0,30.42,West,270,2.8,2.8,38,0.00,CLR,,0.00,WeatherDisplay:10.37,2013-11-24 06:09:00,
2013-11-24 01:10:00,16.2,-5.6,30.46,NW,315,2.8,2.8,37,0.00,CLR,,0.00,WeatherDisplay:10.37,2013-11-24 06:10:00,
2013-11-24 01:13:00,16.2,-6.2,30.50,WNW,292,2.8,2.8,36,0.00,CLR,,0.00,WeatherDisplay:10.37,2013-11-24 06:13:00,
2013-11-24 01:14:00,16.2,-6.2,30.50,WNW,292,2.8,2.8,36,0.00,CLR,,0.00,WeatherDisplay:10.37,2013-11-24 06:14:00,
2013-11-24 01:15:00,16.3,-5.4,30.47,WNW,292,2.8,2.8,37,0.00,CLR,,0.00,WeatherDisplay:10.37,2013-11-24 06:15:00,
2013-11-24 01:18:00,16.3,-5.4,30.47,WNW,292,2.8,2.8,37,0.00,CLR,,0.00,WeatherDisplay:10.37,2013-11-24 06:18:00,
2013-11-24 01:19:00,16.3,-5.4,30.47,WNW,292,2.8,2.8,37,0.00,CLR,,0.00,WeatherDisplay:10.37,2013-11-24 06:19:00,
2013-11-24 01:20:00,16.3,-5.4,30.48,NNW,337,2.8,2.8,37,0.00,CLR,,0.00,WeatherDisplay:10.37,2013-11-24 06:20:00,
2013-11-24 01:21:00,16.3,-5.4,30.48,NNW,337,2.8,2.8,37,0.00,CLR,,0.00,WeatherDisplay:10.37,2013-11-24 06:21:00,
2013-11-24 01:23:00,16.5,-5.3,30.52,NNW,337,2.3,2.3,37,0.00,CLR,,0.00,WeatherDisplay:10.37,2013-11-24 06:23:00,
2013-11-24 01:24:00,16.5,-5.3,30.52,NNW,337,1.7,1.7,37,0.00,CLR,,0.00,WeatherDisplay:10.37,2013-11-24 06:24:00,
2013-11-24 01:25:00,16.5,-4.7,30.51,NNW,337,2.3,2.3,38,0.00,CLR,,0.00,WeatherDisplay:10.37,2013-11-24 06:25:00,
2013-11-24 01:26:00,16.5,-4.7,30.51,WSW,247,2.3,2.3,38,0.00,CLR,,0.00,WeatherDisplay:10.37,2013-11-24 06:26:00,
2013-11-24 01:29:00,16.5,-4.7,30.48,WNW,292,2.4,2.4,38,0.00,CLR,,0.00,WeatherDisplay:10.37,2013-11-24 06:29:00,
2013-11-24 01:31:00,16.5,-5.3,30.48,NNW,337,2.8,2.8,37,0.00,CLR,,0.00,WeatherDisplay:10.37,2013-11-24 06:31:00,
2013-11-24 01:32:00,16.7,-5.1,30.48,NNW,337,2.8,2.8,37,0.00,CLR,,0.00,WeatherDisplay:10.37,2013-11-24 06:32:00,
2013-11-24 01:34:00,16.7,-5.1,30.50,West,270,2.8,2.8,37,0.00,CLR,,0.00,WeatherDisplay:10.37,2013-11-24 06:34:00,
2013-11-24 01:35:00,16.7,-5.1,30.48,West,270,2.8,2.8,37,0.00,CLR,,0.00,WeatherDisplay:10.37,2013-11-24 06:35:00,
2013-11-24 01:36:00,16.7,-5.1,30.48,WNW,292,2.8,2.8,37,0.00,CLR,,0.00,WeatherDisplay:10.37,2013-11-24 06:36:00,
2013-11-24 01:37:00,16.7,-5.1,30.48,WNW,292,2.8,2.8,37,0.00,CLR,,0.00,WeatherDisplay:10.37,2013-11-24 06:37:00,
2013-11-24 01:39:00,16.7,-5.1,30.50,West,270,2.8,2.8,37,0.00,CLR,,0.00,WeatherDisplay:10.37,2013-11-24 06:39:00,
2013-11-24 01:40:00,16.7,-5.1,30.50,West,270,2.8,2.8,37,0.00,CLR,,0.00,WeatherDisplay:10.37,2013-11-24 06:40:00,
2013-11-24 01:41:00,16.9,-4.9,30.48,NW,315,2.8,2.8,37,0.00,CLR,,0.00,WeatherDisplay:10.37,2013-11-24 06:41:00,
2013-11-24 01:42:00,16.9,-4.9,30.48,NW,315,2.8,2.8,37,0.00,CLR,,0.00,WeatherDisplay:10.37,2013-11-24 06:42:00,
2013-11-24 01:43:00,16.9,-4.9,30.45,NW,315,2.8,2.8,37,0.00,CLR,,0.00,WeatherDisplay:10.37,2013-11-24 06:43:00,
2013-11-24 01:44:00,16.9,-4.9,30.45,West,270,2.8,2.8,37,0.00,CLR,,0.00,WeatherDisplay:10.37,2013-11-24 06:44:00,
2013-11-24 01:45:00,16.9,-4.9,30.47,West,270,2.8,2.8,37,0.00,CLR,,0.00,WeatherDisplay:10.37,2013-11-24 06:45:00,
2013-11-24 01:47:00,17.1,-4.8,30.47,WNW,292,2.8,2.8,37,0.00,CLR,,0.00,WeatherDisplay:10.37,2013-11-24 06:47:00,
2013-11-24 01:49:00,17.1,-4.8,30.47,WNW,292,2.8,2.8,37,0.00,CLR,,0.00,WeatherDisplay:10.37,2013-11-24 06:49:00,
2013-11-24 01:50:00,17.1,-4.8,30.45,NNW,337,2.8,2.8,37,0.00,CLR,,0.00,WeatherDisplay:10.37,2013-11-24 06:50:00,
2013-11-24 01:52:00,17.1,-4.8,30.39,NW,315,2.8,2.8,37,0.00,CLR,,0.00,WeatherDisplay:10.37,2013-11-24 06:52:00,
2013-11-24 01:53:00,17.1,-4.8,30.38,NNW,337,2.8,2.8,37,0.00,CLR,,0.00,WeatherDisplay:10.37,2013-11-24 06:53:00,
2013-11-24 01:54:00,17.1,-4.8,30.38,NNW,337,2.8,2.8,37,0.00,CLR,,0.00,WeatherDisplay:10.37,2013-11-24 06:54:00,
2013-11-24 01:55:00,17.1,-4.8,30.47,NNW,337,2.8,2.8,37,0.00,CLR,,0.00,WeatherDisplay:10.37,2013-11-24 06:55:00,
2013-11-24 01:57:00,17.1,-4.8,30.41,NW,315,2.8,2.8,37,0.00,CLR,,0.00,WeatherDisplay:10.37,2013-11-24 06:57:00,
2013-11-24 01:58:00,17.1,-4.8,30.41,NW,315,2.8,2.8,37,0.00,CLR,,0.00,WeatherDisplay:10.37,2013-11-24 06:58:00,
2013-11-24 01:59:00,17.1,-4.8,30.43,NW,315,2.8,2.8,37,0.00,CLR,,0.00,WeatherDisplay:10.37,2013-11-24 06:59:00,
2013-11-24 02:00:00,17.2,-4.6,30.43,West,270,2.8,2.8,37,0.00,CLR,,0.00,WeatherDisplay:10.37,2013-11-24 07:00:00,
2013-11-24 02:02:00,17.2,-4.6,30.39,West,270,2.8,2.8,37,0.00,CLR,,0.00,WeatherDisplay:10.37,2013-11-24 07:02:00,
2013-11-24 02:04:00,17.2,-4.6,30.39,NW,315,2.8,2.8,37,0.00,CLR,,0.00,WeatherDisplay:10.37,2013-11-24 07:04:00,
2013-11-24 02:05:00,17.2,-4.6,30.35,NW,315,2.8,2.8,37,0.00,CLR,,0.00,WeatherDisplay:10.37,2013-11-24 07:05:00,
2013-11-24 02:06:00,17.2,-4.6,30.35,NW,315,2.8,2.8,37,0.00,CLR,,0.00,WeatherDisplay:10.37,2013-11-24 07:06:00,
2013-11-24 02:08:00,17.4,-4.5,30.45,NW,315,2.8,2.8,37,0.00,CLR,,0.00,WeatherDisplay:10.37,2013-11-24 07:08:00,
2013-11-24 02:09:00,17.4,-5.0,30.36,NNW,337,2.8,2.8,36,0.00,CLR,,0.00,WeatherDisplay:10.37,2013-11-24 07:09:00,
2013-11-24 02:10:00,17.4,-5.0,30.36,WNW,292,2.8,2.8,36,0.00,CLR,,0.00,WeatherDisplay:10.37,2013-11-24 07:10:00,
2013-11-24 02:11:00,17.4,-5.0,30.43,WNW,292,2.8,2.8,36,0.00,CLR,,0.00,WeatherDisplay:10.37,2013-11-24 07:11:00,
2013-11-24 02:13:00,17.4,-5.0,30.48,NNW,337,2.8,2.8,36,0.00,CLR,,0.00,WeatherDisplay:10.37,2013-11-24 07:13:00,
2013-11-24 02:14:00,17.4,-5.0,30.48,WNW,292,2.8,2.8,36,0.00,CLR,,0.00,WeatherDisplay:10.37,2013-11-24 07:14:00,
2013-11-24 02:15:00,17.4,-5.0,30.46,WNW,292,2.8,2.8,36,0.00,CLR,,0.00,WeatherDisplay:10.37,2013-11-24 07:15:00,
2013-11-24 02:16:00,17.4,-5.0,30.46,WNW,292,2.8,2.8,36,0.00,CLR,,0.00,WeatherDisplay:10.37,2013-11-24 07:16:00,
2013-11-24 02:19:00,17.4,-4.5,30.43,NNW,337,2.8,2.8,37,0.00,CLR,,0.00,WeatherDisplay:10.37,2013-11-24 07:19:00,
2013-11-24 02:20:00,17.4,-4.5,30.43,West,270,2.8,2.8,37,0.00,CLR,,0.00,WeatherDisplay:10.37,2013-11-24 07:20:00,
2013-11-24 02:21:00,17.4,-4.5,30.43,West,270,2.8,2.8,37,0.00,CLR,,0.00,WeatherDisplay:10.37,2013-11-24 07:21:00,
2013-11-24 02:24:00,14.0,-8.1,30.48,WNW,292,2.3,2.3,36,0.00,CLR,,0.00,WeatherDisplay:10.37,2013-11-24 07:24:00,
2013-11-24 02:26:00,14.0,-7.5,30.47,WNW,292,2.3,2.3,37,0.00,CLR,,0.00,WeatherDisplay:10.37,2013-11-24 07:26:00,
2013-11-24 02:27:00,14.0,-7.5,30.47,NE,45,2.3,2.3,37,0.00,CLR,,0.00,WeatherDisplay:10.37,2013-11-24 07:27:00,
2013-11-24 02:29:00,14.0,-7.5,30.49,West,270,2.3,2.3,37,0.00,CLR,,0.00,WeatherDisplay:10.37,2013-11-24 07:29:00,
2013-11-24 02:30:00,14.0,-8.1,30.50,West,270,2.3,2.3,36,0.00,CLR,,0.00,WeatherDisplay:10.37,2013-11-24 07:30:00,
2013-11-24 02:31:00,14.0,-8.1,30.50,WNW,292,2.3,2.4,36,0.00,CLR,,0.00,WeatherDisplay:10.37,2013-11-24 07:31:00,
2013-11-24 02:32:00,14.0,-7.5,30.50,WNW,292,2.4,2.4,37,0.00,CLR,,0.00,WeatherDisplay:10.37,2013-11-24 07:32:00,
2013-11-24 02:35:00,14.0,-7.5,30.53,NW,315,2.4,2.4,37,0.00,CLR,,0.00,WeatherDisplay:10.37,2013-11-24 07:35:00,
2013-11-24 02:37:00,14.0,-8.1,30.48,West,270,2.4,2.4,36,0.00,CLR,,0.00,WeatherDisplay:10.37,2013-11-24 07:37:00,
2013-11-24 02:38:00,14.0,-8.1,30.48,West,270,2.4,2.4,36,0.00,CLR,,0.00,WeatherDisplay:10.37,2013-11-24 07:38:00,
2013-11-24 02:40:00,14.2,-8.5,30.50,NW,315,2.4,2.4,35,0.00,CLR,,0.00,WeatherDisplay:10.37,2013-11-24 07:40:00,
2013-11-24 02:42:00,14.2,-8.5,30.48,NW,315,2.4,0.0,35,0.00,CLR,,0.00,WeatherDisplay:10.37,2013-11-24 07:42:00,
2013-11-24 02:43:00,14.2,-8.5,30.48,NW,315,2.4,2.4,35,0.00,CLR,,0.00,WeatherDisplay:10.37,2013-11-24 07:43:00,
2013-11-24 02:45:00,14.2,-7.9,30.42,NW,315,2.4,2.4,36,0.00,CLR,,0.00,WeatherDisplay:10.37,2013-11-24 07:45:00,
2013-11-24 02:47:00,14.2,-7.9,30.43,NNW,337,2.4,0.0,36,0.00,CLR,,0.00,WeatherDisplay:10.37,2013-11-24 07:47:00,
2013-11-24 02:48:00,14.2,-7.9,30.53,NNW,337,2.4,0.0,36,0.00,CLR,,0.00,WeatherDisplay:10.37,2013-11-24 07:48:00,
2013-11-24 02:50:00,14.2,-7.9,30.43,NNW,337,2.4,0.0,36,0.00,CLR,,0.00,WeatherDisplay:10.37,2013-11-24 07:50:00,
2013-11-24 02:52:00,14.4,-7.2,30.43,North,0,2.4,2.4,37,0.00,CLR,,0.00,WeatherDisplay:10.37,2013-11-24 07:52:00,
2013-11-24 02:53:00,14.4,-7.2,30.43,North,0,2.4,2.4,37,0.00,CLR,,0.00,WeatherDisplay:10.37,2013-11-24 07:53:00,
2013-11-24 02:54:00,14.4,-7.2,30.53,North,0,2.4,2.4,37,0.00,CLR,,0.00,WeatherDisplay:10.37,2013-11-24 07:54:00,
2013-11-24 02:55:00,14.4,-7.2,30.53,North,0,2.4,2.4,37,0.00,CLR,,0.00,WeatherDisplay:10.37,2013-11-24 07:55:00,
2013-11-24 02:56:00,14.4,-7.2,30.41,North,0,2.4,2.4,37,0.00,CLR,,0.00,WeatherDisplay:10.37,2013-11-24 07:56:00,
2013-11-24 02:57:00,14.4,-6.7,30.41,SSW,202,2.4,2.4,38,0.00,CLR,,0.00,WeatherDisplay:10.37,2013-11-24 07:57:00,
2013-11-24 02:59:00,14.5,-6.5,30.50,SSW,202,2.4,0.0,38,0.00,CLR,,0.00,WeatherDisplay:10.37,2013-11-24 07:59:00,
2013-11-24 03:00:00,14.5,-6.5,30.38,SSW,202,2.4,0.0,38,0.00,CLR,,0.00,WeatherDisplay:10.37,2013-11-24 08:00:00,
2013-11-24 03:01:00,14.5,-6.5,30.38,NNW,337,2.4,2.4,38,0.00,CLR,,0.00,WeatherDisplay:10.37,2013-11-24 08:01:00,
2013-11-24 03:03:00,14.5,-6.5,30.48,WNW,292,2.4,2.4,38,0.00,CLR,,0.00,WeatherDisplay:10.37,2013-11-24 08:03:00,
2013-11-24 03:04:00,14.5,-7.1,30.45,WNW,292,2.4,2.4,37,0.00,CLR,,0.00,WeatherDisplay:10.37,2013-11-24 08:04:00,
2013-11-24 03:05:00,14.5,-7.1,30.45,WNW,292,2.4,2.4,37,0.00,CLR,,0.00,WeatherDisplay:10.37,2013-11-24 08:05:00,
2013-11-24 03:06:00,14.5,-7.1,30.44,WNW,292,2.4,2.4,37,0.00,CLR,,0.00,WeatherDisplay:10.37,2013-11-24 08:06:00,
2013-11-24 03:08:00,14.5,-7.1,30.38,NNW,337,2.4,2.4,37,0.00,CLR,,0.00,WeatherDisplay:10.37,2013-11-24 08:08:00,
2013-11-24 03:09:00,14.5,-7.1,30.38,NNW,337,2.4,2.4,37,0.00,CLR,,0.00,WeatherDisplay:10.37,2013-11-24 08:09:00,
2013-11-24 03:10:00,14.5,-7.1,30.42,NNW,337,2.4,2.4,37,0.00,CLR,,0.00,WeatherDisplay:10.37,2013-11-24 08:10:00,
2013-11-24 03:11:00,14.7,-6.9,30.42,NNW,337,2.4,2.4,37,0.00,CLR,,0.00,WeatherDisplay:10.37,2013-11-24 08:11:00,
2013-11-24 03:14:00,14.7,-6.9,30.41,NNW,337,2.4,0.0,37,0.00,CLR,,0.00,WeatherDisplay:10.37,2013-11-24 08:14:00,
2013-11-24 03:15:00,14.7,-6.9,30.41,NNW,337,2.4,2.4,37,0.00,CLR,,0.00,WeatherDisplay:10.37,2013-11-24 08:15:00,
2013-11-24 03:16:00,14.7,-6.9,30.39,NNW,337,2.4,2.4,37,0.00,CLR,,0.00,WeatherDisplay:10.37,2013-11-24 08:16:00,
2013-11-24 03:17:00,14.9,-6.7,30.39,NNW,337,2.4,2.4,37,0.00,CLR,,0.00,WeatherDisplay:10.37,2013-11-24 08:17:00,
2013-11-24 03:19:00,14.9,-6.7,30.47,NNW,337,2.4,2.4,37,0.00,CLR,,0.00,WeatherDisplay:10.37,2013-11-24 08:19:00,
2013-11-24 03:20:00,14.9,-6.7,30.37,North,0,2.4,2.4,37,0.00,CLR,,0.00,WeatherDisplay:10.37,2013-11-24 08:20:00,
2013-11-24 03:21:00,14.9,-6.7,30.37,WNW,292,2.4,2.4,37,0.00,CLR,,0.00,WeatherDisplay:10.37,2013-11-24 08:21:00,
2013-11-24 03:22:00,14.9,-6.7,30.42,WNW,292,2.3,2.3,37,0.00,CLR,,0.00,WeatherDisplay:10.37,2013-11-24 08:22:00,
2013-11-24 03:24:00,14.9,-6.7,30.47,WNW,292,1.2,1.2,37,0.00,CLR,,0.00,WeatherDisplay:10.37,2013-11-24 08:24:00,
2013-11-24 03:25:00,14.9,-6.7,30.47,WNW,292,1.2,1.2,37,0.00,CLR,,0.00,WeatherDisplay:10.37,2013-11-24 08:25:00,
2013-11-24 03:27:00,14.9,-6.2,30.45,WNW,292,1.2,1.2,38,0.00,CLR,,0.00,WeatherDisplay:10.37,2013-11-24 08:27:00,
2013-11-24 03:29:00,14.9,-6.2,30.40,WNW,292,1.2,1.2,38,0.00,CLR,,0.00,WeatherDisplay:10.37,2013-11-24 08:29:00,
2013-11-24 03:30:00,14.9,-6.7,30.42,WNW,292,1.2,1.2,37,0.00,CLR,,0.00,WeatherDisplay:10.37,2013-11-24 08:30:00,
2013-11-24 03:31:00,15.1,-6.6,30.42,WNW,292,1.2,1.2,37,0.00,CLR,,0.00,WeatherDisplay:10.37,2013-11-24 08:31:00,
2013-11-24 03:32:00,15.1,-6.6,30.42,WNW,292,1.2,1.2,37,0.00,CLR,,0.00,WeatherDisplay:10.37,2013-11-24 08:32:00,
2013-11-24 03:35:00,15.1,-6.6,30.45,WSW,247,1.2,1.2,37,0.00,CLR,,0.00,WeatherDisplay:10.37,2013-11-24 08:35:00,
2013-11-24 03:36:00,15.1,-6.6,30.46,NNW,337,1.2,1.2,37,0.00,CLR,,0.00,WeatherDisplay:10.37,2013-11-24 08:36:00,
2013-11-24 03:37:00,15.1,-6.6,30.46,NNW,337,1.2,0.0,37,0.00,CLR,,0.00,WeatherDisplay:10.37,2013-11-24 08:37:00,
2013-11-24 03:40:00,15.1,-6.0,30.49,NW,315,1.2,1.2,38,0.00,CLR,,0.00,WeatherDisplay:10.37,2013-11-24 08:40:00,
2013-11-24 03:41:00,15.1,-6.0,30.49,NW,315,1.2,1.2,38,0.00,CLR,,0.00,WeatherDisplay:10.37,2013-11-24 08:41:00,
2013-11-24 03:42:00,15.1,-6.0,30.49,NW,315,1.3,1.3,38,0.00,CLR,,0.00,WeatherDisplay:10.37,2013-11-24 08:42:00,
2013-11-24 03:43:00,15.1,-6.0,30.50,WSW,247,1.3,1.3,38,0.00,CLR,,0.00,WeatherDisplay:10.37,2013-11-24 08:43:00,
2013-11-24 03:45:00,15.1,-6.0,30.45,NW,315,1.3,1.3,38,0.00,CLR,,0.00,WeatherDisplay:10.37,2013-11-24 08:45:00,
2013-11-24 03:46:00,15.1,-6.6,30.45,NW,315,1.3,1.3,37,0.00,CLR,,0.00,WeatherDisplay:10.37,2013-11-24 08:46:00,
2013-11-24 03:47:00,15.1,-6.6,30.45,West,270,1.3,0.0,37,0.00,CLR,,0.00,WeatherDisplay:10.37,2013-11-24 08:47:00,
2013-11-24 03:48:00,15.1,-6.6,30.47,West,270,1.3,0.0,37,0.00,CLR,,0.00,WeatherDisplay:10.37,2013-11-24 08:48:00,
2013-11-24 03:50:00,15.3,-6.4,30.48,WNW,292,1.3,1.3,37,0.00,CLR,,0.00,WeatherDisplay:10.37,2013-11-24 08:50:00,
2013-11-24 03:51:00,15.3,-6.4,30.48,WNW,292,1.3,1.3,37,0.00,CLR,,0.00,WeatherDisplay:10.37,2013-11-24 08:51:00,
2013-11-24 03:52:00,15.3,-5.9,30.48,WNW,292,1.3,1.3,38,0.00,CLR,,0.00,WeatherDisplay:10.37,2013-11-24 08:52:00,
2013-11-24 03:53:00,15.3,-5.9,30.48,NNW,337,1.3,1.3,38,0.00,CLR,,0.00,WeatherDisplay:10.37,2013-11-24 08:53:00,
2013-11-24 03:55:00,15.1,-6.0,30.48,NNW,337,1.3,1.3,38,0.00,CLR,,0.00,WeatherDisplay:10.37,2013-11-24 08:55:00,
2013-11-24 03:56:00,15.1,-6.0,30.50,NNW,337,1.3,1.3,38,0.00,CLR,,0.00,WeatherDisplay:10.37,2013-11-24 08:56:00,
2013-11-24 03:57:00,15.1,-6.0,30.50,NW,315,1.3,1.3,38,0.00,CLR,,0.00,WeatherDisplay:10.37,2013-11-24 08:57:00,
2013-11-24 03:58:00,15.1,-6.0,30.50,NW,315,1.3,1.3,38,0.00,CLR,,0.00,WeatherDisplay:10.37,2013-11-24 08:58:00,
2013-11-24 04:00:00,15.1,-6.0,30.51,WNW,292,1.3,1.3,38,0.00,CLR,,0.00,WeatherDisplay:10.37,2013-11-24 09:00:00,
2013-11-24 04:01:00,15.3,-5.9,30.51,NW,315,1.3,1.3,38,0.00,CLR,,0.00,WeatherDisplay:10.37,2013-11-24 09:01:00,
2013-11-24 04:02:00,15.3,-6.4,30.54,NW,315,1.3,1.3,37,0.00,CLR,,0.00,WeatherDisplay:10.37,2013-11-24 09:02:00,
2013-11-24 04:03:00,15.3,-6.4,30.54,WNW,292,1.3,1.3,37,0.00,CLR,,0.00,WeatherDisplay:10.37,2013-11-24 09:03:00,
2013-11-24 04:06:00,15.3,-5.9,30.50,NW,315,1.3,1.3,38,0.00,CLR,,0.00,WeatherDisplay:10.37,2013-11-24 09:06:00,
2013-11-24 04:07:00,15.3,-5.9,30.50,NW,315,1.3,1.3,38,0.00,CLR,,0.00,WeatherDisplay:10.37,2013-11-24 09:07:00,
2013-11-24 04:08:00,15.3,-5.9,30.51,NW,315,1.3,1.3,38,0.00,CLR,,0.00,WeatherDisplay:10.37,2013-11-24 09:08:00,
2013-11-24 04:11:00,15.3,-5.3,30.38,NW,315,1.3,1.3,39,0.00,CLR,,0.00,WeatherDisplay:10.37,2013-11-24 09:11:00,
2013-11-24 04:12:00,15.3,-5.9,30.42,NW,315,1.3,1.3,38,0.00,CLR,,0.00,WeatherDisplay:10.37,2013-11-24 09:12:00,
2013-11-24 04:13:00,15.3,-5.9,30.42,NW,315,1.3,1.3,38,0.00,CLR,,0.00,WeatherDisplay:10.37,2013-11-24 09:13:00,
2013-11-24 04:16:00,15.3,-5.9,30.50,WNW,292,1.3,1.3,38,0.00,CLR,,0.00,WeatherDisplay:10.37,2013-11-24 09:16:00,
2013-11-24 04:17:00,15.1,-6.0,30.50,WNW,292,1.3,0.0,38,0.00,CLR,,0.00,WeatherDisplay:10.37,2013-11-24 09:17:00,
2013-11-24 04:18:00,15.1,-6.0,30.39,WNW,292,1.3,0.0,38,0.00,CLR,,0.00,WeatherDisplay:10.37,2013-11-24 09:18:00,
2013-11-24 04:19:00,15.3,-5.3,30.39,NW,315,1.3,1.3,39,0.00,CLR,,0.00,WeatherDisplay:10.37,2013-11-24 09:19:00,
2013-11-24 04:21:00,15.3,-5.3,30.48,NNW,337,1.3,1.7,39,0.00,CLR,,0.00,WeatherDisplay:10.37,2013-11-24 09:21:00,
2013-11-24 04:22:00,15.3,-5.3,30.43,NNW,337,1.7,1.7,39,0.00,CLR,,0.00,WeatherDisplay:10.37,2013-11-24 09:22:00,
2013-11-24 04:23:00,15.3,-5.9,30.43,NW,315,1.7,1.7,38,0.00,CLR,,0.00,WeatherDisplay:10.37,2013-11-24 09:23:00,
2013-11-24 04:24:00,15.3,-5.9,30.41,NW,315,1.7,1.7,38,0.00,CLR,,0.00,WeatherDisplay:10.37,2013-11-24 09:24:00,
2013-11-24 04:27:00,15.3,-5.9,30.39,NW,315,1.7,2.4,38,0.00,CLR,,0.00,WeatherDisplay:10.37,2013-11-24 09:27:00,
2013-11-24 04:28:00,15.3,-5.9,30.38,NNW,337,2.4,2.4,38,0.00,CLR,,0.00,WeatherDisplay:10.37,2013-11-24 09:28:00,
2013-11-24 04:29:00,15.3,-5.9,30.38,NNW,337,2.4,2.4,38,0.00,CLR,,0.00,WeatherDisplay:10.37,2013-11-24 09:29:00,
2013-11-24 04:32:00,15.3,-5.9,30.37,NW,315,2.4,2.4,38,0.00,CLR,,0.00,WeatherDisplay:10.37,2013-11-24 09:32:00,
2013-11-24 04:33:00,15.3,-5.9,30.37,West,270,2.4,2.4,38,0.00,CLR,,0.00,WeatherDisplay:10.37,2013-11-24 09:33:00,
2013-11-24 04:34:00,15.3,-5.9,30.44,West,270,2.4,2.4,38,0.00,CLR,,0.00,WeatherDisplay:10.37,2013-11-24 09:34:00,
2013-11-24 04:36:00,15.3,-5.9,30.41,NW,315,2.4,2.4,38,0.00,CLR,,0.00,WeatherDisplay:10.37,2013-11-24 09:36:00,
2013-11-24 04:37:00,15.1,-6.0,30.41,NW,315,2.4,2.4,38,0.00,CLR,,0.00,WeatherDisplay:10.37,2013-11-24 09:37:00,
2013-11-24 04:38:00,15.3,-5.9,30.49,WNW,292,2.4,2.4,38,0.00,CLR,,0.00,WeatherDisplay:10.37,2013-11-24 09:38:00,
2013-11-24 04:39:00,15.3,-5.9,30.49,NW,315,2.4,0.0,38,0.00,CLR,,0.00,WeatherDisplay:10.37,2013-11-24 09:39:00,
2013-11-24 04:41:00,15.3,-5.9,30.53,NW,315,2.4,2.4,38,0.00,CLR,,0.00,WeatherDisplay:10.37,2013-11-24 09:41:00,
2013-11-24 04:42:00,15.3,-5.9,30.55,NW,315,2.4,2.4,38,0.00,CLR,,0.00,WeatherDisplay:10.37,2013-11-24 09:42:00,
2013-11-24 04:43:00,15.3,-5.9,30.55,NW,315,2.4,2.4,38,0.00,CLR,,0.00,WeatherDisplay:10.37,2013-11-24 09:43:00,
2013-11-24 04:44:00,15.3,-5.9,30.46,WNW,292,2.4,2.4,38,0.00,CLR,,0.00,WeatherDisplay:10.37,2013-11-24 09:44:00,
2013-11-24 04:45:00,15.3,-5.9,30.46,WNW,292,2.4,2.4,38,0.00,CLR,,0.00,WeatherDisplay:10.37,2013-11-24 09:45:00,
2013-11-24 04:47:00,15.3,-5.9,30.51,NW,315,2.4,2.4,38,0.00,CLR,,0.00,WeatherDisplay:10.37,2013-11-24 09:47:00,
2013-11-24 04:48:00,15.3,-5.9,30.49,NNW,337,2.4,2.4,38,0.00,CLR,,0.00,WeatherDisplay:10.37,2013-11-24 09:48:00,
2013-11-24 04:49:00,15.3,-5.9,30.49,NW,315,2.4,2.4,38,0.00,CLR,,0.00,WeatherDisplay:10.37,2013-11-24 09:49:00,
2013-11-24 04:50:00,15.3,-5.9,30.54,NW,315,2.4,2.4,38,0.00,CLR,,0.00,WeatherDisplay:10.37,2013-11-24 09:50:00,
2013-11-24 04:52:00,15.1,-6.0,30.51,NW,315,2.4,2.4,38,0.00,CLR,,0.00,WeatherDisplay:10.37,2013-11-24 09:52:00,
2013-11-24 04:53:00,15.1,-6.0,30.51,NW,315,2.4,2.4,38,0.00,CLR,,0.00,WeatherDisplay:10.37,2013-11-24 09:53:00,
2013-11-24 04:54:00,15.1,-6.0,30.56,NW,315,2.4,2.4,38,0.00,CLR,,0.00,WeatherDisplay:10.37,2013-11-24 09:54:00,
2013-11-24 04:55:00,15.1,-6.0,30.56,NNW,337,2.4,2.4,38,0.00,CLR,,0.00,WeatherDisplay:10.37,2013-11-24 09:55:00,
2013-11-24 04:57:00,15.1,-6.6,30.47,NNW,337,2.4,2.4,37,0.00,CLR,,0.00,WeatherDisplay:10.37,2013-11-24 09:57:00,
2013-11-24 04:58:00,14.9,-7.3,30.48,NNW,337,2.4,2.4,36,0.00,CLR,,0.00,WeatherDisplay:10.37,2013-11-24 09:58:00,
2013-11-24 04:59:00,14.9,-7.3,30.48,WSW,247,2.4,2.4,36,0.00,CLR,,0.00,WeatherDisplay:10.37,2013-11-24 09:59:00,
2013-11-24 05:00:00,14.9,-7.3,30.51,WSW,247,2.4,2.4,36,0.00,CLR,,0.00,WeatherDisplay:10.37,2013-11-24 10:00:00,
2013-11-24 05:03:00,14.9,-6.7,30.54,WNW,292,2.4,2.4,37,0.00,CLR,,0.00,WeatherDisplay:10.37,2013-11-24 10:03:00,
2013-11-24 05:04:00,14.9,-6.7,30.50,WNW,292,2.4,2.4,37,0.00,CLR,,0.00,WeatherDisplay:10.37,2013-11-24 10:04:00,
2013-11-24 05:05:00,14.7,-6.9,30.50,NNW,337,2.4,2.4,37,0.00,CLR,,0.00,WeatherDisplay:10.37,2013-11-24 10:05:00,
2013-11-24 05:08:00,14.7,-6.9,30.56,NW,315,2.4,2.4,37,0.00,CLR,,0.00,WeatherDisplay:10.37,2013-11-24 10:08:00,
2013-11-24 05:09:00,14.5,-7.1,30.56,NW,315,2.4,2.4,37,0.00,CLR,,0.00,WeatherDisplay:10.37,2013-11-24 10:09:00,
2013-11-24 05:10:00,14.5,-7.1,30.46,NNW,337,2.4,2.4,37,0.00,CLR,,0.00,WeatherDisplay:10.37,2013-11-24 10:10:00,
2013-11-24 05:13:00,14.2,-6.8,30.46,WNW,292,2.4,2.4,38,0.00,CLR,,0.00,WeatherDisplay:10.37,2013-11-24 10:13:00,
2013-11-24 05:14:00,14.2,-6.8,30.46,WNW,292,2.4,2.4,38,0.00,CLR,,0.00,WeatherDisplay:10.37,2013-11-24 10:14:00,
2013-11-24 05:15:00,14.2,-6.3,30.45,ENE,67,2.4,2.4,39,0.00,CLR,,0.00,WeatherDisplay:10.37,2013-11-24 10:15:00,
2013-11-24 05:18:00,14.0,-6.5,30.51,WNW,292,2.4,2.4,39,0.00,CLR,,0.00,WeatherDisplay:10.37,2013-11-24 10:18:00,
2013-11-24 05:19:00,14.0,-6.5,30.51,WNW,292,2.4,2.4,39,0.00,CLR,,0.00,WeatherDisplay:10.37,2013-11-24 10:19:00,
2013-11-24 05:20:00,14.0,-6.5,30.51,WNW,292,2.4,2.4,39,0.00,CLR,,0.00,WeatherDisplay:10.37,2013-11-24 10:20:00,
2013-11-24 05:23:00,17.2,-4.1,30.45,NW,315,1.3,1.3,38,0.00,CLR,,0.00,WeatherDisplay:10.37,2013-11-24 10:23:00,
2013-11-24 05:24:00,17.2,-4.1,30.44,NNW,337,1.3,1.3,38,0.00,CLR,,0.00,WeatherDisplay:10.37,2013-11-24 10:24:00,
2013-11-24 05:25:00,17.2,-4.1,30.44,NNW,337,1.3,1.3,38,0.00,CLR,,0.00,WeatherDisplay:10.37,2013-11-24 10:25:00,
2013-11-24 05:26:00,17.2,-4.1,30.45,NW,315,1.3,1.3,38,0.00,CLR,,0.00,WeatherDisplay:10.37,2013-11-24 10:26:00,
2013-11-24 05:29:00,17.1,-4.2,30.44,NNW,337,1.3,1.3,38,0.00,CLR,,0.00,WeatherDisplay:10.37,2013-11-24 10:29:00,
2013-11-24 05:30:00,17.1,-4.2,30.39,NNW,337,1.3,1.3,38,0.00,CLR,,0.00,WeatherDisplay:10.37,2013-11-24 10:30:00,
2013-11-24 05:31:00,17.1,-4.2,30.39,NNW,337,1.3,1.3,38,0.00,CLR,,0.00,WeatherDisplay:10.37,2013-11-24 10:31:00,
2013-11-24 05:34:00,17.1,-4.2,30.46,WNW,292,1.3,1.3,38,0.00,CLR,,0.00,WeatherDisplay:10.37,2013-11-24 10:34:00,
2013-11-24 05:35:00,16.9,-4.4,30.46,North,0,1.3,2.6,38,0.00,CLR,,0.00,WeatherDisplay:10.37,2013-11-24 10:35:00,
2013-11-24 05:36:00,16.7,-5.1,30.41,West,270,2.6,2.6,37,0.00,CLR,,0.00,WeatherDisplay:10.37,2013-11-24 10:36:00,
2013-11-24 05:37:00,16.7,-5.1,30.41,West,270,2.6,2.6,37,0.00,CLR,,0.00,WeatherDisplay:10.37,2013-11-24 10:37:00,
2013-11-24 05:39:00,16.7,-5.1,30.44,NNW,337,2.6,2.6,37,0.00,CLR,,0.00,WeatherDisplay:10.37,2013-11-24 10:39:00,
2013-11-24 05:40:00,16.7,-5.1,30.48,NNW,337,2.6,2.6,37,0.00,CLR,,0.00,WeatherDisplay:10.37,2013-11-24 10:40:00,
2013-11-24 05:41:00,16.7,-5.1,30.48,NW,315,2.6,2.6,37,0.00,CLR,,0.00,WeatherDisplay:10.37,2013-11-24 10:41:00,
2013-11-24 05:42:00,16.7,-5.1,30.41,NW,315,2.6,2.6,37,0.00,CLR,,0.00,WeatherDisplay:10.37,2013-11-24 10:42:00,
2013-11-24 05:44:00,16.7,-5.1,30.47,WNW,292,2.6,2.6,37,0.00,CLR,,0.00,WeatherDisplay:10.37,2013-11-24 10:44:00,
2013-11-24 05:45:00,16.7,-5.1,30.44,WNW,292,2.6,2.6,37,0.00,CLR,,0.00,WeatherDisplay:10.37,2013-11-24 10:45:00,
2013-11-24 05:46:00,16.5,-5.3,30.44,WNW,292,2.6,2.6,37,0.00,CLR,,0.00,WeatherDisplay:10.37,2013-11-24 10:46:00,
2013-11-24 05:47:00,16.5,-5.3,30.48,West,270,2.6,2.6,37,0.00,CLR,,0.00,WeatherDisplay:10.37,2013-11-24 10:47:00,
2013-11-24 05:50:00,16.5,-5.3,30.51,NW,315,2.6,2.6,37,0.00,CLR,,0.00,WeatherDisplay:10.37,2013-11-24 10:50:00,
2013-11-24 05:51:00,16.5,-5.3,30.51,West,270,2.6,2.6,37,0.00,CLR,,0.00,WeatherDisplay:10.37,2013-11-24 10:51:00,
2013-11-24 05:52:00,16.3,-5.4,30.45,NNW,337,2.6,2.6,37,0.00,CLR,,0.00,WeatherDisplay:10.37,2013-11-24 10:52:00,
2013-11-24 05:55:00,16.3,-4.9,30.52,NNW,337,2.6,2.6,38,0.00,CLR,,0.00,WeatherDisplay:10.37,2013-11-24 10:55:00,
2013-11-24 05:56:00,16.3,-4.9,30.52,NNW,337,2.6,2.6,38,0.00,CLR,,0.00,WeatherDisplay:10.37,2013-11-24 10:56:00,
2013-11-24 05:57:00,16.3,-5.4,30.45,NNW,337,2.6,2.6,37,0.00,CLR,,0.00,WeatherDisplay:10.37,2013-11-24 10:57:00,
2013-11-24 05:58:00,16.2,-5.6,30.45,NNW,337,2.6,2.6,37,0.00,CLR,,0.00,WeatherDisplay:10.37,2013-11-24 10:58:00,
2013-11-24 06:00:00,16.2,-5.6,30.44,NNW,337,2.6,2.6,37,0.00,CLR,,0.00,WeatherDisplay:10.37,2013-11-24 11:00:00,
2013-11-24 06:01:00,16.2,-6.2,30.45,NNW,337,2.6,2.6,36,0.00,CLR,,0.00,WeatherDisplay:10.37,2013-11-24 11:01:00,
2013-11-24 06:02:00,16.2,-6.2,30.45,NNW,337,2.6,2.6,36,0.00,CLR,,0.00,WeatherDisplay:10.37,2013-11-24 11:02:00,
2013-11-24 06:03:00,16.2,-6.2,30.45,NNW,337,3.1,3.1,36,0.00,CLR,,0.00,WeatherDisplay:10.37,2013-11-24 11:03:00,
2013-11-24 06:05:00,16.0,-6.3,30.48,NW,315,3.5,3.5,36,0.00,CLR,,0.00,WeatherDisplay:10.37,2013-11-24 11:05:00,
2013-11-24 06:06:00,16.0,-6.3,30.48,NW,315,3.5,3.5,36,0.00,CLR,,0.00,WeatherDisplay:10.37,2013-11-24 11:06:00,
2013-11-24 06:07:00,16.0,-6.3,30.48,NW,315,3.5,3.5,36,0.00,CLR,,0.00,WeatherDisplay:10.37,2013-11-24 11:07:00,
2013-11-24 06:08:00,16.0,-6.3,30.48,NNW,337,3.5,3.5,36,0.00,CLR,,0.00,WeatherDisplay:10.37,2013-11-24 11:08:00,
2013-11-24 06:11:00,16.0,-5.8,30.50,NW,315,3.5,3.5,37,0.00,CLR,,0.00,WeatherDisplay:10.37,2013-11-24 11:11:00,
2013-11-24 06:12:00,16.0,-5.8,30.50,NW,315,3.5,3.5,37,0.00,CLR,,0.00,WeatherDisplay:10.37,2013-11-24 11:12:00,
2013-11-24 06:13:00,16.0,-5.8,30.45,NW,315,3.5,3.5,37,0.00,CLR,,0.00,WeatherDisplay:10.37,2013-11-24 11:13:00,
2013-11-24 06:16:00,15.8,-6.5,30.56,WNW,292,3.5,3.5,36,0.00,CLR,,0.00,WeatherDisplay:10.37,2013-11-24 11:16:00,
2013-11-24 06:17:00,15.8,-6.5,30.51,NW,315,3.5,3.5,36,0.00,CLR,,0.00,WeatherDisplay:10.37,2013-11-24 11:17:00,
2013-11-24 06:18:00,15.8,-6.5,30.51,NW,315,3.5,3.5,36,0.00,CLR,,0.00,WeatherDisplay:10.37,2013-11-24 11:18:00,
2013-11-24 06:19:00,15.8,-5.9,30.51,NW,315,3.5,3.5,37,0.00,CLR,,0.00,WeatherDisplay:10.37,2013-11-24 11:19:00,
2013-11-24 06:21:00,15.8,-5.9,30.52,WNW,292,3.5,3.5,37,0.00,CLR,,0.00,WeatherDisplay:10.37,2013-11-24 11:21:00,
2013-11-24 06:23:00,15.8,-5.4,30.50,WNW,292,3.5,3.5,38,0.00,CLR,,0.00,WeatherDisplay:10.37,2013-11-24 11:23:00,
2013-11-24 06:24:00,15.8,-5.4,30.50,NNW,337,3.5,3.5,38,0.00,CLR,,0.00,WeatherDisplay:10.37,2013-11-24 11:24:00,
2013-11-24 06:26:00,15.8,-5.4,30.56,NNW,337,2.8,2.8,38,0.00,CLR,,0.00,WeatherDisplay:10.37,2013-11-24 11:26:00,
2013-11-24 06:28:00,15.8,-5.9,30.54,NNW,337,2.8,2.8,37,0.00,CLR,,0.00,WeatherDisplay:10.37,2013-11-24 11:28:00,
2013-11-24 06:29:00,15.8,-5.9,30.54,NNW,337,2.8,2.8,37,0.00,CLR,,0.00,WeatherDisplay:10.37,2013-11-24 11:29:00,
2013-11-24 06:30:00,16.0,-5.2,30.48,West,270,2.8,2.8,38,0.00,CLR,,0.00,WeatherDisplay:10.37,2013-11-24 11:30:00,
2013-11-24 06:32:00,16.0,-5.2,30.48,NW,315,2.8,2.8,38,0.00,CLR,,0.00,WeatherDisplay:10.37,2013-11-24 11:32:00,
2013-11-24 06:33:00,16.0,-5.2,30.50,West,270,2.8,2.8,38,0.00,CLR,,0.00,WeatherDisplay:10.37,2013-11-24 11:33:00,
2013-11-24 06:34:00,16.0,-5.2,30.50,West,270,2.8,2.8,38,0.00,CLR,,0.00,WeatherDisplay:10.37,2013-11-24 11:34:00,
2013-11-24 06:35:00,16.0,-5.2,30.48,NNW,337,2.8,2.8,38,0.00,CLR,,0.00,WeatherDisplay:10.37,2013-11-24 11:35:00,
2013-11-24 06:37:00,16.2,-5.0,30.42,WNW,292,2.8,2.8,38,0.00,CLR,,0.00,WeatherDisplay:10.37,2013-11-24 11:37:00,
2013-11-24 06:38:00,16.3,-4.9,30.42,WNW,292,2.8,2.8,38,0.00,CLR,,0.00,WeatherDisplay:10.37,2013-11-24 11:38:00,
2013-11-24 06:39:00,16.3,-4.9,30.45,WNW,292,2.8,2.8,38,0.00,CLR,,0.00,WeatherDisplay:10.37,2013-11-24 11:39:00,
2013-11-24 06:40:00,16.3,-5.4,30.49,NW,315,2.8,2.8,37,0.00,CLR,,0.00,WeatherDisplay:10.37,2013-11-24 11:40:00,
2013-11-24 06:42:00,16.5,-5.3,30.49,NNW,337,2.8,2.8,37,0.00,CLR,,0.00,WeatherDisplay:10.37,2013-11-24 11:42:00,
2013-11-24 06:43:00,16.5,-5.3,30.45,NNW,337,2.8,2.8,37,0.00,CLR,,0.00,WeatherDisplay:10.37,2013-11-24 11:43:00,
2013-11-24 06:44:00,16.5,-5.3,30.45,NNW,337,2.8,2.8,37,0.00,CLR,,0.00,WeatherDisplay:10.37,2013-11-24 11:44:00,
2013-11-24 06:45:00,16.5,-5.3,30.43,NNW,337,2.8,2.8,37,0.00,CLR,,0.00,WeatherDisplay:10.37,2013-11-24 11:45:00,
2013-11-24 06:46:00,16.7,-5.1,30.43,NNW,337,2.8,2.8,37,0.00,CLR,,0.00,WeatherDisplay:10.37,2013-11-24 11:46:00,
2013-11-24 06:47:00,16.9,-4.9,30.47,NW,315,2.8,2.8,37,0.00,CLR,,0.00,WeatherDisplay:10.37,2013-11-24 11:47:00,
2013-11-24 06:49:00,16.9,-4.9,30.41,WNW,292,2.8,2.8,37,0.00,CLR,,0.00,WeatherDisplay:10.37,2013-11-24 11:49:00,
2013-11-24 06:50:00,16.9,-4.9,30.41,WNW,292,2.8,2.8,37,0.00,CLR,,0.00,WeatherDisplay:10.37,2013-11-24 11:50:00,
2013-11-24 06:52:00,17.1,-4.8,30.50,NW,315,2.8,0.0,37,0.00,CLR,,0.00,WeatherDisplay:10.37,2013-11-24 11:52:00,
2013-11-24 06:54:00,17.1,-5.4,30.44,WSW,247,2.8,2.8,36,0.00,CLR,,0.00,WeatherDisplay:10.37,2013-11-24 11:54:00,
2013-11-24 06:55:00,17.1,-5.9,30.47,WSW,247,2.8,2.8,35,0.00,CLR,,0.00,WeatherDisplay:10.37,2013-11-24 11:55:00,
2013-11-24 06:58:00,17.2,-5.8,30.47,WNW,292,2.8,2.8,35,0.00,CLR,,0.00,WeatherDisplay:10.37,2013-11-24 11:58:00,
2013-11-24 06:59:00,17.4,-5.6,30.46,NNW,337,2.8,2.8,35,0.00,CLR,,0.00,WeatherDisplay:10.37,2013-11-24 11:59:00,
2013-11-24 07:00:00,17.4,-5.6,30.46,NW,315,2.8,2.8,35,0.00,CLR,,0.00,WeatherDisplay:10.37,2013-11-24 12:00:00,
2013-11-24 07:01:00,17.4,-5.6,30.48,NW,315,2.8,2.8,35,0.00,CLR,,0.00,WeatherDisplay:10.37,2013-11-24 12:01:00,
2013-11-24 07:03:00,17.4,-5.6,30.48,NW,315,2.8,2.8,35,0.00,CLR,,0.00,WeatherDisplay:10.37,2013-11-24 12:03:00,
2013-11-24 07:05:00,17.4,-5.0,30.50,West,270,2.8,2.8,36,0.00,CLR,,0.00,WeatherDisplay:10.37,2013-11-24 12:05:00,
2013-11-24 07:06:00,14.0,-8.1,30.52,West,270,2.8,2.8,36,0.00,CLR,,0.00,WeatherDisplay:10.37,2013-11-24 12:06:00,
2013-11-24 07:08:00,14.0,-7.5,30.52,NW,315,2.8,2.8,37,0.00,CLR,,0.00,WeatherDisplay:10.37,2013-11-24 12:08:00,
2013-11-24 07:10:00,14.0,-8.1,30.48,NW,315,2.8,2.8,36,0.00,CLR,,0.00,WeatherDisplay:10.37,2013-11-24 12:10:00,
2013-11-24 07:11:00,14.0,-8.1,30.48,NNW,337,2.8,2.8,36,0.00,CLR,,0.00,WeatherDisplay:10.37,2013-11-24 12:11:00,
2013-11-24 07:13:00,14.2,-7.9,30.53,WNW,292,2.8,2.8,36,0.00,CLR,,0.00,WeatherDisplay:10.37,2013-11-24 12:13:00,
2013-11-24 07:15:00,14.2,-7.9,30.50,West,270,2.8,2.8,36,0.00,CLR,,0.00,WeatherDisplay:10.37,2013-11-24 12:15:00,
2013-11-24 07:16:00,14.2,-7.9,30.50,WNW,292,2.8,2.8,36,0.00,CLR,,0.00,WeatherDisplay:10.37,2013-11-24 12:16:00,
2013-11-24 07:17:00,14.2,-7.9,30.54,WNW,292,2.8,2.8,36,0.00,CLR,,0.00,WeatherDisplay:10.37,2013-11-24 12:17:00,
2013-11-24 07:18:00,14.2,-7.9,30.54,NNW,337,2.8,2.8,36,0.00,CLR,,0.00,WeatherDisplay:10.37,2013-11-24 12:18:00,
2013-11-24 07:20:00,14.4,-7.8,30.56,NNW,337,2.8,2.8,36,0.00,CLR,,0.00,WeatherDisplay:10.37,2013-11-24 12:20:00,
2013-11-24 07:21:00,14.4,-7.8,30.57,NNW,337,2.8,2.8,36,0.00,CLR,,0.00,WeatherDisplay:10.37,2013-11-24 12:21:00,
2013-11-24 07:22:00,14.4,-7.8,30.57,NNW,337,2.8,0.0,36,0.00,CLR,,0.00,WeatherDisplay:10.37,2013-11-24 12:22:00,
2013-11-24 07:23:00,14.4,-7.8,30.46,NNW,337,2.3,0.0,36,0.00,CLR,,0.00,WeatherDisplay:10.37,2013-11-24 12:23:00,
2013-11-24 07:25:00,14.4,-7.8,30.59,NW,315,1.7,1.7,36,0.00,CLR,,0.00,WeatherDisplay:10.37,2013-11-24 12:25:00,
2013-11-24 07:26:00,14.4,-7.8,30.59,NW,315,1.7,1.7,36,0.00,CLR,,0.00,WeatherDisplay:10.37,2013-11-24 12:26:00,
2013-11-24 07:27:00,14.4,-7.2,30.56,West,270,1.7,1.7,37,0.00,CLR,,0.00,WeatherDisplay:10.37,2013-11-24 12:27:00,
2013-11-24 07:28:00,14.4,-7.2,30.56,West,270,1.7,1.7,37,0.00,CLR,,0.00,WeatherDisplay:10.37,2013-11-24 12:28:00,
2013-11-24 07:30:00,14.5,-7.1,30.56,WNW,292,1.7,1.7,37,0.00,CLR,,0.00,WeatherDisplay:10.37,2013-11-24 12:30:00,
2013-11-24 07:31:00,14.5,-7.1,30.50,WNW,292,1.7,1.7,37,0.00,CLR,,0.00,WeatherDisplay:10.37,2013-11-24 12:31:00,
2013-11-24 07:32:00,14.5,-7.1,30.50,WNW,292,1.7,1.7,37,0.00,CLR,,0.00,WeatherDisplay:10.37,2013-11-24 12:32:00,
2013-11-24 07:33:00,14.5,-6.5,30.49,North,0,1.7,1.7,38,0.00,CLR,,0.00,WeatherDisplay:10.37,2013-11-24 12:33:00,
2013-11-24 07:36:00,14.5,-6.5,30.51,WNW,292,1.7,1.7,38,0.00,CLR,,0.00,WeatherDisplay:10.37,2013-11-24 12:36:00,
2013-11-24 07:37:00,14.5,-6.5,30.46,WNW,292,1.7,1.7,38,0.00,CLR,,0.00,WeatherDisplay:10.37,2013-11-24 12:37:00,
2013-11-24 07:38:00,14.5,-6.5,30.46,WNW,292,1.7,1.7,38,0.00,CLR,,0.00,WeatherDisplay:10.37,2013-11-24 12:38:00,
2013-11-24 07:39:00,14.5,-6.5,30.46,WNW,292,1.7,1.7,38,0.00,CLR,,0.00,WeatherDisplay:10.37,2013-11-24 12:39:00,
2013-11-24 07:41:00,14.5,-6.0,30.43,NW,315,1.7,1.7,39,0.00,CLR,,0.00,WeatherDisplay:10.37,2013-11-24 12:41:00,
2013-11-24 07:42:00,14.5,-6.0,30.43,NW,315,1.7,1.7,39,0.00,CLR,,0.00,WeatherDisplay:10.37,2013-11-24 12:42:00,
2013-11-24 07:44:00,14.5,-6.0,30.48,NNW,337,1.7,1.7,39,0.00,CLR,,0.00,WeatherDisplay:10.37,2013-11-24 12:44:00,
2013-11-24 07:46:00,14.5,-6.0,30.45,NNW,337,1.7,0.0,39,0.00,CLR,,0.00,WeatherDisplay:10.37,2013-11-24 12:46:00,
2013-11-24 07:47:00,14.5,-6.5,30.44,NW,315,1.7,0.0,38,0.00,CLR,,0.00,WeatherDisplay:10.37,2013-11-24 12:47:00,
2013-11-24 07:48:00,14.4,-6.7,30.44,NW,315,1.7,0.0,38,0.00,CLR,,0.00,WeatherDisplay:10.37,2013-11-24 12:48:00,
2013-11-24 07:49:00,14.4,-6.7,30.50,NW,315,1.7,0.0,38,0.00,CLR,,0.00,WeatherDisplay:10.37,2013-11-24 12:49:00,
2013-11-24 07:52:00,14.4,-6.7,30.51,WNW,292,1.7,0.0,38,0.00,CLR,,0.00,WeatherDisplay:10.37,2013-11-24 12:52:00,
2013-11-24 07:53:00,14.4,-6.7,30.50,WNW,292,1.7,0.0,38,0.00,CLR,,0.00,WeatherDisplay:10.37,2013-11-24 12:53:00,
2013-11-24 07:54:00,14.4,-6.7,30.50,NNW,337,1.7,1.7,38,0.00,CLR,,0.00,WeatherDisplay:10.37,2013-11-24 12:54:00,
2013-11-24 07:57:00,14.4,-6.7,30.48,WNW,292,1.7,1.7,38,0.00,CLR,,0.00,WeatherDisplay:10.37,2013-11-24 12:57:00,
2013-11-24 07:58:00,14.4,-6.7,30.48,WNW,292,1.7,1.7,38,0.00,CLR,,0.00,WeatherDisplay:10.37,2013-11-24 12:58:00,
2013-11-24 07:59:00,14.2,-6.8,30.43,WNW,292,1.7,1.7,38,0.00,CLR,,0.00,WeatherDisplay:10.37,2013-11-24 12:59:00,
2013-11-24 08:00:00,14.2,-6.8,30.43,WNW,292,1.7,1.7,38,0.00,CLR,,0.00,WeatherDisplay:10.37,2013-11-24 13:00:00,
2013-11-24 08:02:00,14.0,-7.5,30.48,South,180,1.7,1.7,37,0.00,CLR,,0.00,WeatherDisplay:10.37,2013-11-24 13:02:00,
2013-11-24 08:03:00,14.0,-7.5,30.46,South,180,1.7,1.7,37,0.00,CLR,,0.00,WeatherDisplay:10.37,2013-11-24 13:03:00,
2013-11-24 08:04:00,17.4,-4.5,30.46,NW,315,1.7,1.7,37,0.00,CLR,,0.00,WeatherDisplay:10.37,2013-11-24 13:04:00,
2013-11-24 08:06:00,17.4,-4.5,30.48,NW,315,1.7,0.0,37,0.00,CLR,,0.00,WeatherDisplay:10.37,2013-11-24 13:06:00,
2013-11-24 08:07:00,17.2,-4.6,30.49,NNW,337,1.7,0.0,37,0.00,CLR,,0.00,WeatherDisplay:10.37,2013-11-24 13:07:00,
2013-11-24 08:08:00,17.2,-4.6,30.49,NNW,337,1.7,0.0,37,0.00,CLR,,0.00,WeatherDisplay:10.37,2013-11-24 13:08:00,
2013-11-24 08:09:00,17.2,-4.6,30.54,NNW,337,1.7,0.0,37,0.00,CLR,,0.00,WeatherDisplay:10.37,2013-11-24 13:09:00,
2013-11-24 08:10:00,17.1,-4.8,30.54,NNW,337,1.7,1.7,37,0.00,CLR,,0.00,WeatherDisplay:10.37,2013-11-24 13:10:00,
2013-11-24 08:11:00,17.1,-4.8,30.52,NNW,337,1.7,1.7,37,0.00,CLR,,0.00,WeatherDisplay:10.37,2013-11-24 13:11:00,
2013-11-24 08:12:00,16.9,-4.9,30.53,WNW,292,1.7,0.0,37,0.00,CLR,,0.00,WeatherDisplay:10.37,2013-11-24 13:12:00,
2013-11-24 08:13:00,16.9,-4.9,30.53,WSW,247,1.7,0.0,37,0.00,CLR,,0.00,WeatherDisplay:10.37,2013-11-24 13:13:00,
2013-11-24 08:14:00,16.9,-4.9,30.53,WSW,247,1.7,1.7,37,0.00,CLR,,0.00,WeatherDisplay:10.37,2013-11-24 13:14:00,
2013-11-24 08:15:00,16.9,-4.9,30.48,WSW,247,1.7,1.7,37,0.00,CLR,,0.00,WeatherDisplay:10.37,2013-11-24 13:15:00,
2013-11-24 08:17:00,16.7,-5.1,30.51,WNW,292,1.7,0.0,37,0.00,CLR,,0.00,WeatherDisplay:10.37,2013-11-24 13:17:00,
2013-11-24 08:18:00,16.7,-5.1,30.51,NW,315,1.7,0.0,37,0.00,CLR,,0.00,WeatherDisplay:10.37,2013-11-24 13:18:00,
2013-11-24 08:19:00,16.5,-5.3,30.51,NW,315,1.7,1.7,37,0.00,CLR,,0.00,WeatherDisplay:10.37,2013-11-24 13:19:00,
2013-11-24 08:20:00,16.5,-5.3,30.51,NW,315,1.7,1.7,37,0.00,CLR,,0.00,WeatherDisplay:10.37,2013-11-24 13:20:00,
2013-11-24 08:23:00,16.5,-5.8,30.53,WNW,292,1.2,1.2,36,0.00,CLR,,0.00,WeatherDisplay:10.37,2013-11-24 13:23:00,
2013-11-24 08:24:00,16.5,-5.8,30.53,NNW,337,1.2,1.2,36,0.00,CLR,,0.00,WeatherDisplay:10.37,2013-11-24 13:24:00,
2013-11-24 08:26:00,16.5,-5.8,30.53,NNW,337,1.2,1.2,36,0.00,CLR,,0.00,WeatherDisplay:10.37,2013-11-24 13:26:00,
2013-11-24 08:28:00,16.5,-5.8,30.58,WSW,247,1.2,1.2,36,0.00,CLR,,0.00,WeatherDisplay:10.37,2013-11-24 13:28:00,
2013-11-24 08:29:00,16.5,-5.8,30.58,WSW,247,1.2,1.2,36,0.00,CLR,,0.00,WeatherDisplay:10.37,2013-11-24 13:29:00,
2013-11-24 08:30:00,16.3,-5.4,30.50,WSW,247,1.2,1.7,37,0.00,CLR,,0.00,WeatherDisplay:10.37,2013-11-24 13:30:00,
2013-11-24 08:31:00,16.3,-5.4,30.58,NNW,337,1.7,1.7,37,0.00,CLR,,0.00,WeatherDisplay:10.37,2013-11-24 13:31:00,
2013-11-24 08:33:00,16.2,-5.6,30.54,NNW,337,1.7,0.0,37,0.00,CLR,,0.00,WeatherDisplay:10.37,2013-11-24 13:33:00,
2013-11-24 08:34:00,16.2,-5.6,30.54,NNW,337,1.7,0.0,37,0.00,CLR,,0.00,WeatherDisplay:10.37,2013-11-24 13:34:00,
2013-11-24 08:35:00,16.2,-5.0,30.51,WNW,292,2.4,0.0,38,0.00,CLR,,0.00,WeatherDisplay:10.37,2013-11-24 13:35:00,
2013-11-24 08:36:00,16.0,-5.2,30.51,NNW,337,2.4,2.4,38,0.00,CLR,,0.00,WeatherDisplay:10.37,2013-11-24 13:36:00,
2013-11-24 08:39:00,16.0,-5.2,30.51,WNW,292,2.4,2.4,38,0.00,CLR,,0.00,WeatherDisplay:10.37,2013-11-24 13:39:00,
2013-11-24 08:40:00,16.0,-4.7,30.53,WNW,292,2.4,2.4,39,0.00,CLR,,0.00,WeatherDisplay:10.37,2013-11-24 13:40:00,
2013-11-24 08:42:00,16.0,-4.7,30.52,WSW,247,2.4,2.4,39,0.00,CLR,,0.00,WeatherDisplay:10.37,2013-11-24 13:42:00,
2013-11-24 08:44:00,15.8,-4.3,30.54,WNW,292,2.4,2.4,40,0.00,CLR,,0.00,WeatherDisplay:10.37,2013-11-24 13:44:00,
2013-11-24 08:45:00,15.8,-4.3,30.54,NW,315,2.4,2.4,40,0.00,CLR,,0.00,WeatherDisplay:10.37,2013-11-24 13:45:00,
2013-11-24 08:47:00,15.8,-4.8,30.49,WNW,292,2.4,2.4,39,0.00,CLR,,0.00,WeatherDisplay:10.37,2013-11-24 13:47:00,
2013-11-24 08:49:00,15.8,-4.8,30.46,WNW,292,2.4,2.4,39,0.00,CLR,,0.00,WeatherDisplay:10.37,2013-11-24 13:49:00,
2013-11-24 08:50:00,15.8,-4.8,30.46,WNW,292,2.4,2.4,39,0.00,CLR,,0.00,WeatherDisplay:10.37,2013-11-24 13:50:00,
2013-11-24 08:53:00,19.0,-2.4,30.53,NNW,337,2.4,2.4,38,0.00,CLR,,0.00,WeatherDisplay:10.37,2013-11-24 13:53:00,
2013-11-24 08:54:00,17.6,-3.7,30.53,NW,315,2.4,0.0,38,0.00,CLR,,0.00,WeatherDisplay:10.37,2013-11-24 13:54:00,
2013-11-24 08:55:00,17.6,-3.7,30.48,NW,315,2.4,0.0,38,0.00,CLR,,0.00,WeatherDisplay:10.37,2013-11-24 13:55:00,
2013-11-24 08:56:00,22.8,1.0,30.48,NW,315,2.4,0.0,38,0.00,CLR,,0.00,WeatherDisplay:10.37,2013-11-24 13:56:00,
2013-11-24 08:58:00,24.3,1.7,30.48,WNW,292,2.4,2.4,37,0.00,CLR,,0.00,WeatherDisplay:10.37,2013-11-24 13:58:00,
2013-11-24 09:00:00,26.1,3.9,30.44,NNW,337,2.4,2.4,38,0.00,CLR,,0.00,WeatherDisplay:10.37,2013-11-24 14:00:00,
2013-11-24 09:02:00,28.2,4.6,30.44,NNW,337,2.4,0.0,36,0.00,CLR,,0.00,WeatherDisplay:10.37,2013-11-24 14:02:00,
2013-11-24 09:03:00,27.3,3.8,30.51,WNW,292,2.4,0.0,36,0.00,CLR,,0.00,WeatherDisplay:10.37,2013-11-24 14:03:00,
2013-11-24 09:05:00,26.6,3.2,30.50,NNW,337,2.4,2.4,36,0.00,CLR,,0.00,WeatherDisplay:10.37,2013-11-24 14:05:00,
2013-11-24 09:06:00,26.6,3.2,30.50,NNW,337,2.4,2.4,36,0.00,CLR,,0.00,WeatherDisplay:10.37,2013-11-24 14:06:00,
2013-11-24 09:07:00,26.6,3.2,30.47,NNW,337,2.4,2.4,36,0.00,CLR,,0.00,WeatherDisplay:10.37,2013-11-24 14:07:00,
2013-11-24 09:09:00,29.5,5.8,30.47,SW,225,2.4,2.4,36,0.00,CLR,,0.00,WeatherDisplay:10.37,2013-11-24 14:09:00,
2013-11-24 09:10:00,28.8,5.7,30.46,NNW,337,2.4,2.4,37,0.00,CLR,,0.00,WeatherDisplay:10.37,2013-11-24 14:10:00,
2013-11-24 09:11:00,28.8,5.7,30.46,NNW,337,2.4,2.4,37,0.00,CLR,,0.00,WeatherDisplay:10.37,2013-11-24 14:11:00,
2013-11-24 09:12:00,28.6,5.6,30.47,WNW,292,2.4,2.4,37,0.00,CLR,,0.00,WeatherDisplay:10.37,2013-11-24 14:12:00,
2013-11-24 09:14:00,29.1,6.0,30.49,NNW,337,2.4,2.4,37,0.00,CLR,,0.00,WeatherDisplay:10.37,2013-11-24 14:14:00,
2013-11-24 09:16:00,30.0,6.9,30.44,NNW,337,2.4,2.4,37,0.00,CLR,,0.00,WeatherDisplay:10.37,2013-11-24 14:16:00,
2013-11-24 09:17:00,30.0,6.9,30.56,NNW,337,2.4,2.4,37,0.00,CLR,,0.00,WeatherDisplay:10.37,2013-11-24 14:17:00,
2013-11-24 09:20:00,24.8,2.2,30.56,North,0,2.4,2.4,37,0.00,CLR,,0.00,WeatherDisplay:10.37,2013-11-24 14:20:00,
2013-11-24 09:21:00,24.8,2.2,30.48,North,0,2.4,2.4,37,0.00,CLR,,0.00,WeatherDisplay:10.37,2013-11-24 14:21:00,
2013-11-24 09:22:00,25.7,3.0,30.48,WNW,292,2.4,2.4,37,0.00,CLR,,0.00,WeatherDisplay:10.37,2013-11-24 14:22:00,
2013-11-24 09:25:00,26.2,4.0,30.51,NW,315,1.2,1.3,38,0.00,CLR,,0.00,WeatherDisplay:10.37,2013-11-24 14:25:00,
2013-11-24 09:26:00,26.2,4.0,30.51,NW,315,1.2,1.3,38,0.00,CLR,,0.00,WeatherDisplay:10.37,2013-11-24 14:26:00,
2013-11-24 09:27:00,26.2,4.0,30.56,NW,315,1.3,1.3,38,0.00,CLR,,0.00,WeatherDisplay:10.37,2013-11-24 14:27:00,
2013-11-24 09:29:00,25.5,2.8,30.56,NNW,337,1.3,1.3,37,0.00,CLR,,0.00,WeatherDisplay:10.37,2013-11-24 14:29:00,
2013-11-24 09:30:00,25.0,2.3,30.56,West,270,1.3,1.3,37,0.00,CLR,,0.00,WeatherDisplay:10.37,2013-11-24 14:30:00,
2013-11-24 09:31:00,25.0,2.3,30.48,NNE,22,1.3,1.3,37,0.00,CLR,,0.00,WeatherDisplay:10.37,2013-11-24 14:31:00,
2013-11-24 09:32:00,25.0,2.3,30.48,NNE,22,1.3,2.0,37,0.00,CLR,,0.00,WeatherDisplay:10.37,2013-11-24 14:32:00,
2013-11-24 09:34:00,27.5,4.6,30.49,WSW,247,2.3,0.0,37,0.00,CLR,,0.00,WeatherDisplay:10.37,2013-11-24 14:34:00,
2013-11-24 09:36:00,27.0,4.1,30.60,NW,315,2.3,2.6,37,0.00,CLR,,0.00,WeatherDisplay:10.37,2013-11-24 14:36:00,
2013-11-24 09:37:00,27.0,4.1,30.60,NW,315,2.6,2.6,37,0.00,CLR,,0.00,WeatherDisplay:10.37,2013-11-24 14:37:00,
2013-11-24 09:38:00,26.8,4.5,30.57,NW,315,2.6,2.6,38,0.00,CLR,,0.00,WeatherDisplay:10.37,2013-11-24 14:38:00,
2013-11-24 09:40:00,26.8,5.1,30.51,NNW,337,2.6,3.1,39,0.00,CLR,,0.00,WeatherDisplay:10.37,2013-11-24 14:40:00,
2013-11-24 09:41:00,26.8,5.1,30.55,NNW,337,3.5,3.5,39,0.00,CLR,,0.00,WeatherDisplay:10.37,2013-11-24 14:41:00,
2013-11-24 09:42:00,29.5,7.5,30.55,NNW,337,3.5,3.5,39,0.00,CLR,,0.00,WeatherDisplay:10.37,2013-11-24 14:42:00,
2013-11-24 09:44:00,29.3,7.4,30.61,NW,315,3.5,3.5,39,0.00,CLR,,0.00,WeatherDisplay:10.37,2013-11-24 14:44:00,
2013-11-24 09:45:00,29.3,6.8,30.55,NNW,337,3.5,3.5,38,0.00,CLR,,0.00,WeatherDisplay:10.37,2013-11-24 14:45:00,
2013-11-24 09:46:00,28.9,6.5,30.55,NNW,337,3.5,3.5,38,0.00,CLR,,0.00,WeatherDisplay:10.37,2013-11-24 14:46:00,
2013-11-24 09:47:00,28.9,6.5,30.55,NNW,337,3.5,3.5,38,0.00,CLR,,0.00,WeatherDisplay:10.37,2013-11-24 14:47:00,
2013-11-24 09:50:00,31.5,9.3,30.59,NNW,337,4.6,4.6,39,0.00,CLR,,0.00,WeatherDisplay:10.37,2013-11-24 14:50:00,
2013-11-24 09:52:00,31.5,9.3,30.54,NNW,337,4.6,4.6,39,0.00,CLR,,0.00,WeatherDisplay:10.37,2013-11-24 14:52:00,
2013-11-24 09:55:00,31.5,9.3,30.50,NNW,337,4.6,4.6,39,0.00,CLR,,0.00,WeatherDisplay:10.37,2013-11-24 14:55:00,
2013-11-24 09:56:00,30.9,8.8,30.50,WNW,292,4.6,4.6,39,0.00,CLR,,0.00,WeatherDisplay:10.37,2013-11-24 14:56:00,
2013-11-24 09:57:00,30.9,8.8,30.59,WNW,292,4.6,4.6,39,0.00,CLR,,0.00,WeatherDisplay:10.37,2013-11-24 14:57:00,
2013-11-24 09:58:00,30.9,8.2,30.59,NW,315,4.6,4.6,38,0.00,CLR,,0.00,WeatherDisplay:10.37,2013-11-24 14:58:00,
2013-11-24 10:00:00,30.9,8.2,30.50,NW,315,4.6,4.6,38,0.00,CLR,,0.00,WeatherDisplay:10.37,2013-11-24 15:00:00,
2013-11-24 10:02:00,30.6,7.3,30.57,West,270,4.6,4.6,37,0.00,CLR,,0.00,WeatherDisplay:10.37,2013-11-24 15:02:00,
2013-11-24 10:04:00,31.1,7.8,30.57,NNW,337,4.6,4.6,37,0.00,CLR,,0.00,WeatherDisplay:10.37,2013-11-24 15:04:00,
2013-11-24 10:06:00,31.8,9.1,30.51,WNW,292,4.6,4.6,38,0.00,CLR,,0.00,WeatherDisplay:10.37,2013-11-24 15:06:00,
2013-11-24 10:07:00,31.8,9.1,30.52,WNW,292,4.6,4.6,38,0.00,CLR,,0.00,WeatherDisplay:10.37,2013-11-24 15:07:00,
2013-11-24 10:09:00,32.0,9.2,30.52,NNW,337,4.6,4.6,38,0.00,CLR,,0.00,WeatherDisplay:10.37,2013-11-24 15:09:00,
2013-11-24 10:11:00,32.0,9.2,30.59,North,0,4.6,4.6,38,0.00,CLR,,0.00,WeatherDisplay:10.37,2013-11-24 15:11:00,
2013-11-24 10:12:00,32.2,9.4,30.59,North,0,4.6,4.6,38,0.00,CLR,,0.00,WeatherDisplay:10.37,2013-11-24 15:12:00,
2013-11-24 10:14:00,32.9,10.0,30.53,North,0,4.6,4.6,38,0.00,CLR,,0.00,WeatherDisplay:10.37,2013-11-24 15:14:00,
2013-11-24 10:16:00,32.9,10.0,30.56,North,0,4.6,4.6,38,0.00,CLR,,0.00,WeatherDisplay:10.37,2013-11-24 15:16:00,
2013-11-24 10:17:00,32.0,9.2,30.54,WSW,247,4.6,4.6,38,0.00,CLR,,0.00,WeatherDisplay:10.37,2013-11-24 15:17:00,
2013-11-24 10:18:00,32.0,9.2,30.54,WSW,247,4.6,4.6,38,0.00,CLR,,0.00,WeatherDisplay:10.37,2013-11-24 15:18:00,
2013-11-24 10:19:00,32.0,9.2,30.53,WSW,247,4.6,4.6,38,0.00,CLR,,0.00,WeatherDisplay:10.37,2013-11-24 15:19:00,
2013-11-24 10:21:00,30.9,8.2,30.53,SW,225,4.6,4.6,38,0.00,CLR,,0.00,WeatherDisplay:10.37,2013-11-24 15:21:00,
2013-11-24 10:22:00,30.2,7.6,30.53,WNW,292,4.6,4.6,38,0.00,CLR,,0.00,WeatherDisplay:10.37,2013-11-24 15:22:00,
2013-11-24 10:23:00,30.2,8.2,30.60,WNW,292,4.6,4.6,39,0.00,CLR,,0.00,WeatherDisplay:10.37,2013-11-24 15:23:00,
2013-11-24 10:24:00,30.2,8.2,30.49,WNW,292,3.5,3.5,39,0.00,CLR,,0.00,WeatherDisplay:10.37,2013-11-24 15:24:00,
2013-11-24 10:26:00,30.6,8.5,30.49,WNW,292,3.5,3.5,39,0.00,CLR,,0.00,WeatherDisplay:10.37,2013-11-24 15:26:00,
2013-11-24 10:28:00,31.3,9.2,30.51,WNW,292,3.5,3.5,39,0.00,CLR,,0.00,WeatherDisplay:10.37,2013-11-24 15:28:00,
2013-11-24 10:29:00,31.3,9.2,30.52,WNW,292,3.5,3.5,39,0.00,CLR,,0.00,WeatherDisplay:10.37,2013-11-24 15:29:00,
2013-11-24 10:30:00,31.6,9.5,30.52,WNW,292,3.5,3.5,39,0.00,CLR,,0.00,WeatherDisplay:10.37,2013-11-24 15:30:00,
2013-11-24 10:32:00,32.7,10.4,30.49,NNW,337,3.5,3.5,39,0.00,CLR,,0.00,WeatherDisplay:10.37,2013-11-24 15:32:00,
2013-11-24 10:33:00,32.7,9.9,30.47,NNW,337,3.5,3.5,38,0.00,CLR,,0.00,WeatherDisplay:10.37,2013-11-24 15:33:00,
2013-11-24 10:34:00,32.5,9.7,30.47,NNW,337,3.5,3.5,38,0.00,CLR,,0.00,WeatherDisplay:10.37,2013-11-24 15:34:00,
2013-11-24 10:35:00,32.5,9.7,30.50,NNW,337,4.6,4.6,38,0.00,CLR,,0.00,WeatherDisplay:10.37,2013-11-24 15:35:00,
2013-11-24 10:37:00,31.6,8.9,30.43,WNW,292,4.6,4.6,38,0.00,CLR,,0.00,WeatherDisplay:10.37,2013-11-24 15:37:00,
2013-11-24 10:38:00,30.4,7.8,30.43,NNW,337,4.6,4.6,38,0.00,CLR,,0.00,WeatherDisplay:10.37,2013-11-24 15:38:00,
2013-11-24 10:39:00,30.4,7.2,30.42,NNW,337,4.6,4.6,37,0.00,CLR,,0.00,WeatherDisplay:10.37,2013-11-24 15:39:00,
2013-11-24 10:40:00,29.3,6.2,30.42,NNW,337,4.6,4.6,37,0.00,CLR,,0.00,WeatherDisplay:10.37,2013-11-24 15:40:00,
2013-11-24 10:42:00,26.6,3.8,30.47,WNW,292,4.6,4.6,37,0.00,CLR,,0.00,WeatherDisplay:10.37,2013-11-24 15:42:00,
2013-11-24 10:43:00,27.1,3.7,30.48,WNW,292,4.6,4.6,36,0.00,CLR,,0.00,WeatherDisplay:10.37,2013-11-24 15:43:00,
2013-11-24 10:45:00,27.1,3.7,30.45,WNW,292,4.6,4.6,36,0.00,CLR,,0.00,WeatherDisplay:10.37,2013-11-24 15:45:00,
2013-11-24 10:46:00,27.7,4.2,30.45,NW,315,4.6,4.6,36,0.00,CLR,,0.00,WeatherDisplay:10.37,2013-11-24 15:46:00,
2013-11-24 10:47:00,27.9,4.3,30.47,NW,315,4.6,4.6,36,0.00,CLR,,0.00,WeatherDisplay:10.37,2013-11-24 15:47:00,
2013-11-24 10:48:00,27.9,4.3,30.47,NW,315,4.6,4.6,36,0.00,CLR,,0.00,WeatherDisplay:10.37,2013-11-24 15:48:00,
2013-11-24 10:50:00,27.7,3.5,30.51,North,0,4.6,4.6,35,0.00,CLR,,0.00,WeatherDisplay:10.37,2013-11-24 15:50:00,
2013-11-24 10:51:00,27.7,3.5,30.53,NNW,337,4.6,4.6,35,0.00,CLR,,0.00,WeatherDisplay:10.37,2013-11-24 15:51:00,
2013-11-24 10:52:00,27.3,3.2,30.53,NNW,337,4.6,4.6,35,0.00,CLR,,0.00,WeatherDisplay:10.37,2013-11-24 15:52:00,
2013-11-24 10:54:00,27.3,3.2,30.50,NNW,337,4.6,4.6,35,0.00,CLR,,0.00,WeatherDisplay:10.37,2013-11-24 15:54:00,
2013-11-24 10:55:00,27.3,3.2,30.51,NNW,337,4.6,4.6,35,0.00,CLR,,0.00,WeatherDisplay:10.37,2013-11-24 15:55:00,
2013-11-24 10:56:00,27.3,3.2,30.51,NNW,337,4.6,4.6,35,0.00,CLR,,0.00,WeatherDisplay:10.37,2013-11-24 15:56:00,
2013-11-24 10:57:00,27.3,3.2,30.52,NNW,337,4.6,4.6,35,0.00,CLR,,0.00,WeatherDisplay:10.37,2013-11-24 15:57:00,
2013-11-24 10:58:00,27.3,3.2,30.52,NNW,337,4.6,4.6,35,0.00,CLR,,0.00,WeatherDisplay:10.37,2013-11-24 15:58:00,
2013-11-24 10:59:00,27.3,3.2,30.56,NNW,337,4.6,4.6,35,0.00,CLR,,0.00,WeatherDisplay:10.37,2013-11-24 15:59:00,
2013-11-24 11:01:00,29.7,5.3,30.48,NNW,337,4.6,4.6,35,0.00,CLR,,0.00,WeatherDisplay:10.37,2013-11-24 16:01:00,
2013-11-24 11:03:00,29.3,5.0,30.56,West,270,4.6,4.6,35,0.00,CLR,,0.00,WeatherDisplay:10.37,2013-11-24 16:03:00,
2013-11-24 11:04:00,29.1,4.8,30.56,West,270,4.6,4.6,35,0.00,CLR,,0.00,WeatherDisplay:10.37,2013-11-24 16:04:00,
2013-11-24 11:05:00,29.1,4.8,30.50,West,270,4.6,4.6,35,0.00,CLR,,0.00,WeatherDisplay:10.37,2013-11-24 16:05:00,
2013-11-24 11:06:00,29.1,5.4,30.50,NNW,337,4.6,4.6,36,0.00,CLR,,0.00,WeatherDisplay:10.37,2013-11-24 16:06:00,
2013-11-24 11:07:00,29.1,5.4,30.50,NNW,337,4.6,4.6,36,0.00,CLR,,0.00,WeatherDisplay:10.37,2013-11-24 16:07:00,
2013-11-24 11:08:00,29.1,5.4,30.50,NW,315,4.6,4.6,36,0.00,CLR,,0.00,WeatherDisplay:10.37,2013-11-24 16:08:00,
2013-11-24 11:09:00,29.1,5.4,30.55,NW,315,4.6,4.6,36,0.00,CLR,,0.00,WeatherDisplay:10.37,2013-11-24 16:09:00,
2013-11-24 11:10:00,29.1,5.4,30.55,NNW,337,4.6,4.6,36,0.00,CLR,,0.00,WeatherDisplay:10.37,2013-11-24 16:10:00,
2013-11-24 11:11:00,29.1,6.0,30.52,NNW,337,4.6,4.6,37,0.00,CLR,,0.00,WeatherDisplay:10.37,2013-11-24 16:11:00,
2013-11-24 11:12:00,29.5,6.4,30.52,NNW,337,4.6,4.6,37,0.00,CLR,,0.00,WeatherDisplay:10.37,2013-11-24 16:12:00,
2013-11-24 11:13:00,29.5,6.4,30.52,NNW,337,4.6,4.6,37,0.00,CLR,,0.00,WeatherDisplay:10.37,2013-11-24 16:13:00,
2013-11-24 11:14:00,29.5,6.4,30.49,NNW,337,4.6,4.6,37,0.00,CLR,,0.00,WeatherDisplay:10.37,2013-11-24 16:14:00,
2013-11-24 11:15:00,29.5,6.4,30.55,NNW,337,4.6,4.6,37,0.00,CLR,,0.00,WeatherDisplay:10.37,2013-11-24 16:15:00,
2013-11-24 11:16:00,29.5,6.4,30.55,NNW,337,4.6,4.6,37,0.00,CLR,,0.00,WeatherDisplay:10.37,2013-11-24 16:16:00,
2013-11-24 11:17:00,31.5,8.1,30.54,NW,315,4.6,4.6,37,0.00,CLR,,0.00,WeatherDisplay:10.37,2013-11-24 16:17:00,
2013-11-24 11:18:00,31.5,8.1,30.54,NW,315,4.6,4.6,37,0.00,CLR,,0.00,WeatherDisplay:10.37,2013-11-24 16:18:00,
2013-11-24 11:19:00,31.5,8.1,30.53,NNW,337,4.6,4.6,37,0.00,CLR,,0.00,WeatherDisplay:10.37,2013-11-24 16:19:00,
2013-11-24 11:20:00,32.4,8.9,30.53,NNW,337,4.6,4.6,37,0.00,CLR,,0.00,WeatherDisplay:10.37,2013-11-24 16:20:00,
2013-11-24 11:21:00,32.4,8.9,30.53,NNW,337,4.6,4.6,37,0.00,CLR,,0.00,WeatherDisplay:10.37,2013-11-24 16:21:00,
2013-11-24 11:22:00,32.5,9.1,30.53,NNW,337,4.6,4.6,37,0.00,CLR,,0.00,WeatherDisplay:10.37,2013-11-24 16:22:00,
2013-11-24 11:24:00,31.6,8.3,30.54,NNW,337,4.6,4.6,37,0.00,CLR,,0.00,WeatherDisplay:10.37,2013-11-24 16:24:00,
2013-11-24 11:25:00,31.6,8.3,30.55,NNW,337,4.6,4.6,37,0.00,CLR,,0.00,WeatherDisplay:10.37,2013-11-24 16:25:00,
2013-11-24 11:27:00,31.5,8.1,30.55,NNW,337,4.6,4.6,37,0.00,CLR,,0.00,WeatherDisplay:10.37,2013-11-24 16:27:00,
2013-11-24 11:29:00,30.7,7.5,30.59,NNW,337,4.6,4.6,37,0.00,CLR,,0.00,WeatherDisplay:10.37,2013-11-24 16:29:00,
2013-11-24 11:30:00,30.7,7.5,30.59,NNW,337,4.6,4.6,37,0.00,CLR,,0.00,WeatherDisplay:10.37,2013-11-24 16:30:00,
2013-11-24 11:32:00,30.6,7.3,30.47,West,270,4.6,4.6,37,0.00,CLR,,0.00,WeatherDisplay:10.37,2013-11-24 16:32:00,
2013-11-24 11:33:00,30.6,7.3,30.49,West,270,4.6,4.6,37,0.00,CLR,,0.00,WeatherDisplay:10.37,2013-11-24 16:33:00,
2013-11-24 11:34:00,30.6,7.3,30.49,WNW,292,4.6,4.6,37,0.00,CLR,,0.00,WeatherDisplay:10.37,2013-11-24 16:34:00,
2013-11-24 11:35:00,30.6,7.3,30.57,WNW,292,4.6,4.6,37,0.00,CLR,,0.00,WeatherDisplay:10.37,2013-11-24 16:35:00,
2013-11-24 11:37:00,30.6,6.7,30.50,WNW,292,4.6,4.6,36,0.00,CLR,,0.00,WeatherDisplay:10.37,2013-11-24 16:37:00,
2013-11-24 11:38:00,30.6,6.7,30.50,NNW,337,4.6,4.6,36,0.00,CLR,,0.00,WeatherDisplay:10.37,2013-11-24 16:38:00,
2013-11-24 11:40:00,26.8,3.4,30.50,NNW,337,4.6,4.6,36,0.00,CLR,,0.00,WeatherDisplay:10.37,2013-11-24 16:40:00,
2013-11-24 11:41:00,26.8,3.4,30.54,West,270,4.6,4.6,36,0.00,CLR,,0.00,WeatherDisplay:10.37,2013-11-24 16:41:00,
2013-11-24 11:42:00,27.1,3.7,30.54,West,270,4.6,4.6,36,0.00,CLR,,0.00,WeatherDisplay:10.37,2013-11-24 16:42:00,
2013-11-24 11:44:00,27.5,4.0,30.50,WNW,292,4.6,4.6,36,0.00,CLR,,0.00,WeatherDisplay:10.37,2013-11-24 16:44:00,
2013-11-24 11:45:00,27.5,4.6,30.60,WNW,292,4.6,4.6,37,0.00,CLR,,0.00,WeatherDisplay:10.37,2013-11-24 16:45:00,
2013-11-24 11:46:00,27.7,4.8,30.60,WNW,292,4.6,4.6,37,0.00,CLR,,0.00,WeatherDisplay:10.37,2013-11-24 16:46:00,
2013-11-24 11:47:00,27.1,3.7,30.53,NNW,337,4.6,4.6,36,0.00,CLR,,0.00,WeatherDisplay:10.37,2013-11-24 16:47:00,
2013-11-24 11:50:00,27.5,4.6,30.51,NNW,337,4.6,4.6,37,0.00,CLR,,0.00,WeatherDisplay:10.37,2013-11-24 16:50:00,
2013-11-24 11:51:00,27.5,4.6,30.51,NNW,337,4.6,4.6,37,0.00,CLR,,0.00,WeatherDisplay:10.37,2013-11-24 16:51:00,
2013-11-24 11:52:00,27.3,4.4,30.55,NNW,337,4.6,4.6,37,0.00,CLR,,0.00,WeatherDisplay:10.37,2013-11-24 16:52:00,
2013-11-24 11:55:00,27.3,4.4,30.51,NNW,337,4.6,4.6,37,0.00,CLR,,0.00,WeatherDisplay:10.37,2013-11-24 16:55:00,
2013-11-24 11:56:00,27.5,4.6,30.53,NNW,337,4.6,4.6,37,0.00,CLR,,0.00,WeatherDisplay:10.37,2013-11-24 16:56:00,
2013-11-24 11:58:00,27.7,4.8,30.55,WNW,292,4.6,4.6,37,0.00,CLR,,0.00,WeatherDisplay:10.37,2013-11-24 16:58:00,
2013-11-24 12:00:00,28.0,5.1,30.52,WNW,292,4.6,4.6,37,0.00,CLR,,0.00,WeatherDisplay:10.37,2013-11-24 17:00:00,
2013-11-24 12:01:00,24.8,2.2,30.56,WNW,292,4.6,4.6,37,0.00,CLR,,0.00,WeatherDisplay:10.37,2013-11-24 17:01:00,
2013-11-24 12:02:00,24.8,2.2,30.56,WNW,292,4.6,4.6,37,0.00,CLR,,0.00,WeatherDisplay:10.37,2013-11-24 17:02:00,
2013-11-24 12:03:00,24.8,2.2,30.51,SW,225,4.6,4.6,37,0.00,CLR,,0.00,WeatherDisplay:10.37,2013-11-24 17:03:00,
2013-11-24 12:05:00,25.0,2.3,30.51,SW,225,4.6,4.6,37,0.00,CLR,,0.00,WeatherDisplay:10.37,2013-11-24 17:05:00,
2013-11-24 12:06:00,25.0,2.3,30.51,NW,315,4.6,4.6,37,0.00,CLR,,0.00,WeatherDisplay:10.37,2013-11-24 17:06:00,
2013-11-24 12:07:00,25.0,2.3,30.51,NW,315,4.6,4.6,37,0.00,CLR,,0.00,WeatherDisplay:10.37,2013-11-24 17:07:00,
2013-11-24 12:08:00,24.8,2.2,30.51,NW,315,4.6,4.6,37,0.00,CLR,,0.00,WeatherDisplay:10.37,2013-11-24 17:08:00,
2013-11-24 12:10:00,24.8,2.2,30.51,West,270,4.6,4.6,37,0.00,CLR,,0.00,WeatherDisplay:10.37,2013-11-24 17:10:00,
2013-11-24 12:11:00,24.8,2.2,30.53,West,270,4.6,4.6,37,0.00,CLR,,0.00,WeatherDisplay:10.37,2013-11-24 17:11:00,
2013-11-24 12:12:00,24.8,1.6,30.53,NW,315,4.6,4.6,36,0.00,CLR,,0.00,WeatherDisplay:10.37,2013-11-24 17:12:00,
2013-11-24 12:13:00,24.8,1.6,30.52,NW,315,4.6,4.6,36,0.00,CLR,,0.00,WeatherDisplay:10.37,2013-11-24 17:13:00,
2013-11-24 12:14:00,24.8,1.6,30.52,NW,315,4.6,4.6,36,0.00,CLR,,0.00,WeatherDisplay:10.37,2013-11-24 17:14:00,
2013-11-24 12:16:00,24.8,1.6,30.52,NW,315,4.6,4.6,36,0.00,CLR,,0.00,WeatherDisplay:10.37,2013-11-24 17:16:00,
2013-11-24 12:23:00,24.8,1.6,30.52,North,0,4.6,0.0,36,0.00,CLR,,0.00,WeatherDisplay:10.37,2013-11-24 17:23:00,
2013-11-24 12:24:00,24.8,1.6,30.52,North,0,4.6,0.0,36,0.00,CLR,,0.00,WeatherDisplay:10.37,2013-11-24 17:24:00,
2013-11-24 12:25:00,24.8,1.6,30.51,North,0,4.6,0.0,36,0.00,CLR,,0.00,WeatherDisplay:10.37,2013-11-24 17:25:00,
2013-11-24 12:26:00,28.2,4.6,30.51,NNW,337,4.6,4.6,36,0.00,CLR,,0.00,WeatherDisplay:10.37,2013-11-24 17:26:00,
2013-11-24 12:30:00,24.8,1.6,30.52,NNW,337,2.8,2.8,36,0.00,CLR,,0.00,WeatherDisplay:10.37,2013-11-24 17:30:00,
2013-11-24 12:31:00,24.8,1.6,30.52,West,270,2.8,2.8,36,0.00,CLR,,0.00,WeatherDisplay:10.37,2013-11-24 17:31:00,
2013-11-24 12:32:00,28.2,4.6,30.52,West,270,2.8,2.8,36,0.00,CLR,,0.00,WeatherDisplay:10.37,2013-11-24 17:32:00,
2013-11-24 12:35:00,28.2,4.6,30.52,NNW,337,2.8,2.8,36,0.00,CLR,,0.00,WeatherDisplay:10.37,2013-11-24 17:35:00,
2013-11-24 12:36:00,28.2,4.6,30.52,SSW,202,2.8,2.8,36,0.00,CLR,,0.00,WeatherDisplay:10.37,2013-11-24 17:36:00,
2013-11-24 12:37:00,28.2,4.6,30.44,SSW,202,2.8,2.8,36,0.00,CLR,,0.00,WeatherDisplay:10.37,2013-11-24 17:37:00,
2013-11-24 12:38:00,28.2,4.6,30.44,NNW,337,2.8,2.8,36,0.00,CLR,,0.00,WeatherDisplay:10.37,2013-11-24 17:38:00,
2013-11-24 12:41:00,28.2,4.6,30.52,NNW,337,2.8,2.8,36,0.00,CLR,,0.00,WeatherDisplay:10.37,2013-11-24 17:41:00,
2013-11-24 12:42:00,28.2,4.6,30.52,NNW,337,2.8,2.8,36,0.00,CLR,,0.00,WeatherDisplay:10.37,2013-11-24 17:42:00,
2013-11-24 12:43:00,28.2,4.6,30.50,NW,315,2.8,2.8,36,0.00,CLR,,0.00,WeatherDisplay:10.37,2013-11-24 17:43:00,
2013-11-24 12:44:00,24.8,1.6,30.50,NW,315,2.8,2.8,36,0.00,CLR,,0.00,WeatherDisplay:10.37,2013-11-24 17:44:00,
2013-11-24 12:45:00,24.8,1.6,30.48,NW,315,2.8,2.8,36,0.00,CLR,,0.00,WeatherDisplay:10.37,2013-11-24 17:45:00,
2013-11-24 12:47:00,24.8,1.6,30.42,West,270,2.8,2.8,36,0.00,CLR,,0.00,WeatherDisplay:10.37,2013-11-24 17:47:00,
2013-11-24 12:50:00,24.8,1.6,30.41,West,270,2.8,2.8,36,0.00,CLR,,0.00,WeatherDisplay:10.37,2013-11-24 17:50:00,
2013-11-24 12:51:00,24.8,1.6,30.48,West,270,2.8,2.8,36,0.00,CLR,,0.00,WeatherDisplay:10.37,2013-11-24 17:51:00,
2013-11-24 12:54:00,28.2,5.2,30.42,WNW,292,3.5,3.5,37,0.00,CLR,,0.00,WeatherDisplay:10.37,2013-11-24 17:54:00,
2013-11-24 12:55:00,27.7,4.8,30.45,NW,315,3.5,3.5,37,0.00,CLR,,0.00,WeatherDisplay:10.37,2013-11-24 17:55:00,
2013-11-24 12:56:00,27.7,4.8,30.45,NW,315,3.5,3.5,37,0.00,CLR,,0.00,WeatherDisplay:10.37,2013-11-24 17:56:00,
2013-11-24 12:57:00,27.7,4.8,30.39,NW,315,3.5,3.5,37,0.00,CLR,,0.00,WeatherDisplay:10.37,2013-11-24 17:57:00,
2013-11-24 12:59:00,28.0,5.1,30.48,NW,315,3.5,3.5,37,0.00,CLR,,0.00,WeatherDisplay:10.37,2013-11-24 17:59:00,
2013-11-24 13:01:00,27.5,4.6,30.42,NW,315,3.5,3.5,37,0.00,CLR,,0.00,WeatherDisplay:10.37,2013-11-24 18:01:00,
2013-11-24 13:02:00,27.5,4.6,30.42,NW,315,3.5,3.5,37,0.00,CLR,,0.00,WeatherDisplay:10.37,2013-11-24 18:02:00,
2013-11-24 13:03:00,27.3,4.4,30.42,NW,315,3.5,3.5,37,0.00,CLR,,0.00,WeatherDisplay:10.37,2013-11-24 18:03:00,
2013-11-24 13:07:00,26.8,2.7,30.42,NNW,337,3.5,3.5,35,0.00,CLR,,0.00,WeatherDisplay:10.37,2013-11-24 18:07:00,
2013-11-24 13:08:00,26.8,2.7,30.42,NNW,337,3.5,3.5,35,0.00,CLR,,0.00,WeatherDisplay:10.37,2013-11-24 18:08:00,
2013-11-24 13:10:00,26.6,2.6,30.42,WNW,292,3.5,3.5,35,0.00,CLR,,0.00,WeatherDisplay:10.37,2013-11-24 18:10:00,
2013-11-24 13:11:00,26.6,2.0,30.42,WNW,292,3.5,3.5,34,0.00,CLR,,0.00,WeatherDisplay:10.37,2013-11-24 18:11:00,
2013-11-24 13:12:00,26.6,2.0,30.48,WNW,292,3.5,3.5,34,0.00,CLR,,0.00,WeatherDisplay:10.37,2013-11-24 18:12:00,
2013-11-24 13:13:00,30.0,5.0,30.48,West,270,3.5,3.5,34,0.00,CLR,,0.00,WeatherDisplay:10.37,2013-11-24 18:13:00,
2013-11-24 13:14:00,30.0,5.0,30.45,West,270,3.5,3.5,34,0.00,CLR,,0.00,WeatherDisplay:10.37,2013-11-24 18:14:00,
2013-11-24 13:15:00,29.8,4.2,30.45,NW,315,3.5,3.5,33,0.00,CLR,,0.00,WeatherDisplay:10.37,2013-11-24 18:15:00,
2013-11-24 13:17:00,29.3,3.7,30.47,WNW,292,3.6,3.6,33,0.00,CLR,,0.00,WeatherDisplay:10.37,2013-11-24 18:17:00,
2013-11-24 13:18:00,29.3,3.7,30.47,WNW,292,3.6,3.6,33,0.00,CLR,,0.00,WeatherDisplay:10.37,2013-11-24 18:18:00,
2013-11-24 13:19:00,29.3,3.7,30.48,WNW,292,3.6,3.6,33,0.00,CLR,,0.00,WeatherDisplay:10.37,2013-11-24 18:19:00,
2013-11-24 13:20:00,28.8,3.9,30.48,WNW,292,3.6,3.6,34,0.00,CLR,,0.00,WeatherDisplay:10.37,2013-11-24 18:20:00,
2013-11-24 13:21:00,28.8,3.9,30.48,WSW,247,3.6,3.6,34,0.00,CLR,,0.00,WeatherDisplay:10.37,2013-11-24 18:21:00,
2013-11-24 13:22:00,30.6,5.5,30.48,WSW,247,3.6,3.6,34,0.00,CLR,,0.00,WeatherDisplay:10.37,2013-11-24 18:22:00,
2013-11-24 13:23:00,30.6,6.1,30.43,WNW,292,3.5,3.5,35,0.00,CLR,,0.00,WeatherDisplay:10.37,2013-11-24 18:23:00,
2013-11-24 13:24:00,30.7,6.3,30.43,NW,315,1.7,1.7,35,0.00,CLR,,0.00,WeatherDisplay:10.37,2013-11-24 18:24:00,
2013-11-24 13:26:00,30.7,6.3,30.46,WNW,292,1.7,1.7,35,0.00,CLR,,0.00,WeatherDisplay:10.37,2013-11-24 18:26:00,
2013-11-24 13:27:00,30.7,6.3,30.44,WNW,292,2.8,2.8,35,0.00,CLR,,0.00,WeatherDisplay:10.37,2013-11-24 18:27:00,
2013-11-24 13:28:00,30.6,6.7,30.44,NW,315,2.8,2.8,36,0.00,CLR,,0.00,WeatherDisplay:10.37,2013-11-24 18:28:00,
2013-11-24 13:29:00,30.6,6.7,30.50,NW,315,2.8,2.8,36,0.00,CLR,,0.00,WeatherDisplay:10.37,2013-11-24 18:29:00,
2013-11-24 13:31:00,30.2,6.4,30.46,NW,315,2.8,2.8,36,0.00,CLR,,0.00,WeatherDisplay:10.37,2013-11-24 18:31:00,
2013-11-24 13:34:00,30.2,6.4,30.48,NNW,337,2.8,2.8,36,0.00,CLR,,0.00,WeatherDisplay:10.37,2013-11-24 18:34:00,
2013-11-24 13:35:00,30.2,6.4,30.47,NNW,337,2.8,2.8,36,0.00,CLR,,0.00,WeatherDisplay:10.37,2013-11-24 18:35:00,
2013-11-24 13:36:00,29.3,5.6,30.47,WNW,292,2.8,2.8,36,0.00,CLR,,0.00,WeatherDisplay:10.37,2013-11-24 18:36:00,
2013-11-24 13:38:00,29.5,5.1,30.47,NW,315,2.8,2.8,35,0.00,CLR,,0.00,WeatherDisplay:10.37,2013-11-24 18:38:00,
2013-11-24 13:39:00,29.5,5.1,30.50,NW,315,2.8,2.8,35,0.00,CLR,,0.00,WeatherDisplay:10.37,2013-11-24 18:39:00,
2013-11-24 13:40:00,29.8,5.5,30.50,WNW,292,2.8,2.8,35,0.00,CLR,,0.00,WeatherDisplay:10.37,2013-11-24 18:40:00,
2013-11-24 13:41:00,29.8,5.5,30.42,WNW,292,2.8,2.8,35,0.00,CLR,,0.00,WeatherDisplay:10.37,2013-11-24 18:41:00,
2013-11-24 13:42:00,30.0,5.6,30.42,WNW,292,2.8,2.8,35,0.00,CLR,,0.00,WeatherDisplay:10.37,2013-11-24 18:42:00,
2013-11-24 13:44:00,30.0,5.6,30.49,WNW,292,2.8,2.8,35,0.00,CLR,,0.00,WeatherDisplay:10.37,2013-11-24 18:44:00,
2013-11-24 13:45:00,26.6,3.2,30.49,NNW,337,2.8,2.8,36,0.00,CLR,,0.00,WeatherDisplay:10.37,2013-11-24 18:45:00,
2013-11-24 13:46:00,26.6,3.2,30.49,NNW,337,2.8,2.8,36,0.00,CLR,,0.00,WeatherDisplay:10.37,2013-11-24 18:46:00,
2013-11-24 13:47:00,26.6,3.2,30.49,North,0,3.6,3.6,36,0.00,CLR,,0.00,WeatherDisplay:10.37,2013-11-24 18:47:00,
2013-11-24 13:48:00,26.6,3.2,30.46,North,0,3.6,3.6,36,0.00,CLR,,0.00,WeatherDisplay:10.37,2013-11-24 18:48:00,
2013-11-24 13:49:00,26.8,3.4,30.46,NNW,337,3.6,3.6,36,0.00,CLR,,0.00,WeatherDisplay:10.37,2013-11-24 18:49:00,
2013-11-24 13:50:00,27.1,3.1,30.43,NNW,337,3.6,3.6,35,0.00,CLR,,0.00,WeatherDisplay:10.37,2013-11-24 18:50:00,
2013-11-24 13:51:00,27.1,3.1,30.43,NNW,337,3.6,3.6,35,0.00,CLR,,0.00,WeatherDisplay:10.37,2013-11-24 18:51:00,
2013-11-24 13:53:00,27.3,3.2,30.44,West,270,3.6,3.6,35,0.00,CLR,,0.00,WeatherDisplay:10.37,2013-11-24 18:53:00,
2013-11-24 13:54:00,27.3,3.2,30.44,WNW,292,3.6,3.6,35,0.00,CLR,,0.00,WeatherDisplay:10.37,2013-11-24 18:54:00,
2013-11-24 13:55:00,27.5,3.4,30.44,NNW,337,3.6,3.6,35,0.00,CLR,,0.00,WeatherDisplay:10.37,2013-11-24 18:55:00,
2013-11-24 13:57:00,27.5,3.4,30.46,NNW,337,3.6,3.6,35,0.00,CLR,,0.00,WeatherDisplay:10.37,2013-11-24 18:57:00,
2013-11-24 13:58:00,27.9,3.7,30.46,NNW,337,3.6,3.6,35,0.00,CLR,,0.00,WeatherDisplay:10.37,2013-11-24 18:58:00,
2013-11-24 14:01:00,28.0,4.5,30.45,NNW,337,3.6,3.6,36,0.00,CLR,,0.00,WeatherDisplay:10.37,2013-11-24 19:01:00,
2013-11-24 14:02:00,28.0,4.5,30.48,NNW,337,3.6,3.6,36,0.00,CLR,,0.00,WeatherDisplay:10.37,2013-11-24 19:02:00,
2013-11-24 14:06:00,24.8,1.6,30.45,NW,315,3.6,3.6,36,0.00,CLR,,0.00,WeatherDisplay:10.37,2013-11-24 19:06:00,
2013-11-24 14:07:00,25.0,1.7,30.45,NW,315,3.6,3.6,36,0.00,CLR,,0.00,WeatherDisplay:10.37,2013-11-24 19:07:00,
2013-11-24 14:09:00,25.2,1.9,30.42,WNW,292,3.6,3.6,36,0.00,CLR,,0.00,WeatherDisplay:10.37,2013-11-24 19:09:00,
2013-11-24 14:11:00,25.2,1.3,30.42,NW,315,3.6,3.6,35,0.00,CLR,,0.00,WeatherDisplay:10.37,2013-11-24 19:11:00,
2013-11-24 14:12:00,25.2,1.9,30.45,NW,315,3.6,3.6,36,0.00,CLR,,0.00,WeatherDisplay:10.37,2013-11-24 19:12:00,
2013-11-24 14:13:00,25.2,1.9,30.45,SW,225,3.6,3.6,36,0.00,CLR,,0.00,WeatherDisplay:10.37,2013-11-24 19:13:00,
2013-11-24 14:14:00,25.2,1.9,30.41,SW,225,3.6,3.6,36,0.00,CLR,,0.00,WeatherDisplay:10.37,2013-11-24 19:14:00,
2013-11-24 14:15:00,25.2,1.3,30.41,SW,225,3.6,3.6,35,0.00,CLR,,0.00,WeatherDisplay:10.37,2013-11-24 19:15:00,
2013-11-24 14:19:00,25.2,1.9,30.42,NNW,337,3.6,3.6,36,0.00,CLR,,0.00,WeatherDisplay:10.37,2013-11-24 19:19:00,
2013-11-24 14:21:00,25.2,1.9,30.42,NNW,337,3.6,0.0,36,0.00,CLR,,0.00,WeatherDisplay:10.37,2013-11-24 19:21:00,
2013-11-24 14:24:00,25.2,1.9,30.39,WNW,292,2.3,2.3,36,0.00,CLR,,0.00,WeatherDisplay:10.37,2013-11-24 19:24:00,
2013-11-24 14:26:00,25.2,1.9,30.35,NW,315,2.3,2.3,36,0.00,CLR,,0.00,WeatherDisplay:10.37,2013-11-24 19:26:00,
2013-11-24 14:27:00,25.0,1.1,30.35,NW,315,2.3,2.3,35,0.00,CLR,,0.00,WeatherDisplay:10.37,2013-11-24 19:27:00,
2013-11-24 14:32:00,25.0,0.5,30.36,SW,225,3.5,3.5,34,0.00,CLR,,0.00,WeatherDisplay:10.37,2013-11-24 19:32:00,
2013-11-24 14:33:00,28.2,3.4,30.36,SW,225,3.5,3.5,34,0.00,CLR,,0.00,WeatherDisplay:10.37,2013-11-24 19:33:00,
2013-11-24 14:34:00,28.2,2.7,30.40,SW,225,3.5,3.5,33,0.00,CLR,,0.00,WeatherDisplay:10.37,2013-11-24 19:34:00,
2013-11-24 14:35:00,27.5,2.1,30.40,NW,315,3.5,3.5,33,0.00,CLR,,0.00,WeatherDisplay:10.37,2013-11-24 19:35:00,
2013-11-24 14:36:00,27.1,1.1,30.42,NW,315,3.5,3.5,32,0.00,CLR,,0.00,WeatherDisplay:10.37,2013-11-24 19:36:00,
2013-11-24 14:37:00,27.1,1.1,30.42,NW,315,3.5,3.5,32,0.00,CLR,,0.00,WeatherDisplay:10.37,2013-11-24 19:37:00,
2013-11-24 14:38:00,27.1,1.1,30.41,NNW,337,3.5,3.5,32,0.00,CLR,,0.00,WeatherDisplay:10.37,2013-11-24 19:38:00,
2013-11-24 14:39:00,27.0,1.0,30.41,NNW,337,3.5,3.5,32,0.00,CLR,,0.00,WeatherDisplay:10.37,2013-11-24 19:39:00,
2013-11-24 14:42:00,27.0,1.0,30.44,NW,315,3.5,3.5,32,0.00,CLR,,0.00,WeatherDisplay:10.37,2013-11-24 19:42:00,
2013-11-24 14:43:00,27.1,1.8,30.44,NW,315,3.5,3.5,33,0.00,CLR,,0.00,WeatherDisplay:10.37,2013-11-24 19:43:00,
2013-11-24 14:44:00,27.1,1.8,30.45,NW,315,3.5,3.5,33,0.00,CLR,,0.00,WeatherDisplay:10.37,2013-11-24 19:44:00,
2013-11-24 14:48:00,27.5,2.1,30.48,West,270,3.5,3.5,33,0.00,CLR,,0.00,WeatherDisplay:10.37,2013-11-24 19:48:00,
2013-11-24 14:49:00,27.5,2.1,30.48,NNW,337,3.5,3.5,33,0.00,CLR,,0.00,WeatherDisplay:10.37,2013-11-24 19:49:00,
2013-11-24 14:50:00,27.5,2.1,30.51,NNW,337,3.5,3.5,33,0.00,CLR,,0.00,WeatherDisplay:10.37,2013-11-24 19:50:00,
2013-11-24 14:53:00,27.7,2.9,30.42,WSW,247,3.5,3.5,34,0.00,CLR,,0.00,WeatherDisplay:10.37,2013-11-24 19:53:00,
2013-11-24 14:54:00,27.7,2.9,30.44,WNW,292,3.5,3.5,34,0.00,CLR,,0.00,WeatherDisplay:10.37,2013-11-24 19:54:00,
2013-11-24 14:55:00,27.7,2.9,30.44,WNW,292,3.5,3.5,34,0.00,CLR,,0.00,WeatherDisplay:10.37,2013-11-24 19:55:00,
2013-11-24 14:56:00,27.7,2.9,30.43,WNW,292,3.5,3.5,34,0.00,CLR,,0.00,WeatherDisplay:10.37,2013-11-24 19:56:00,
2013-11-24 14:58:00,27.5,3.4,30.44,NNW,337,3.5,3.5,35,0.00,CLR,,0.00,WeatherDisplay:10.37,2013-11-24 19:58:00,
2013-11-24 14:59:00,27.3,3.8,30.44,SW,225,3.5,3.5,36,0.00,CLR,,0.00,WeatherDisplay:10.37,2013-11-24 19:59:00,
2013-11-24 15:00:00,27.3,3.8,30.45,SW,225,3.5,3.5,36,0.00,CLR,,0.00,WeatherDisplay:10.37,2013-11-24 20:00:00,
2013-11-24 15:02:00,27.3,3.8,30.45,SW,225,3.5,3.5,36,0.00,CLR,,0.00,WeatherDisplay:10.37,2013-11-24 20:02:00,
2013-11-24 15:03:00,27.3,3.8,30.45,NW,315,3.5,3.5,36,0.00,CLR,,0.00,WeatherDisplay:10.37,2013-11-24 20:03:00,
2013-11-24 15:05:00,27.3,3.8,30.46,NW,315,3.5,3.5,36,0.00,CLR,,0.00,WeatherDisplay:10.37,2013-11-24 20:05:00,
2013-11-24 15:06:00,27.3,3.8,30.49,NW,315,3.5,3.5,36,0.00,CLR,,0.00,WeatherDisplay:10.37,2013-11-24 20:06:00,
2013-11-24 15:07:00,27.3,3.8,30.49,West,270,3.5,3.5,36,0.00,CLR,,0.00,WeatherDisplay:10.37,2013-11-24 20:07:00,
2013-11-24 15:08:00,27.3,3.8,30.47,West,270,3.5,3.5,36,0.00,CLR,,0.00,WeatherDisplay:10.37,2013-11-24 20:08:00,
2013-11-24 15:10:00,27.5,4.0,30.47,West,270,3.5,3.5,36,0.00,CLR,,0.00,WeatherDisplay:10.37,2013-11-24 20:10:00,
2013-11-24 15:11:00,27.5,4.0,30.47,NW,315,3.5,3.5,36,0.00,CLR,,0.00,WeatherDisplay:10.37,2013-11-24 20:11:00,
2013-11-24 15:12:00,27.7,4.8,30.48,WNW,292,3.5,3.5,37,0.00,CLR,,0.00,WeatherDisplay:10.37,2013-11-24 20:12:00,
2013-11-24 15:13:00,27.7,4.8,30.48,WNW,292,3.5,3.5,37,0.00,CLR,,0.00,WeatherDisplay:10.37,2013-11-24 20:13:00,
2013-11-24 15:16:00,27.9,4.9,30.42,NW,315,3.5,3.5,37,0.00,CLR,,0.00,WeatherDisplay:10.37,2013-11-24 20:16:00,
2013-11-24 15:17:00,27.9,4.9,30.53,WNW,292,3.5,3.5,37,0.00,CLR,,0.00,WeatherDisplay:10.37,2013-11-24 20:17:00,
2013-11-24 15:18:00,28.0,5.1,30.53,WNW,292,3.5,3.5,37,0.00,CLR,,0.00,WeatherDisplay:10.37,2013-11-24 20:18:00,
2013-11-24 15:22:00,28.2,5.2,30.43,NW,315,3.5,3.5,37,0.00,CLR,,0.00,WeatherDisplay:10.37,2013-11-24 20:22:00,
2013-11-24 15:23:00,28.2,4.6,30.44,NW,315,3.5,3.5,36,0.00,CLR,,0.00,WeatherDisplay:10.37,2013-11-24 20:23:00,
2013-11-24 15:24:00,28.2,4.6,30.44,NW,315,2.3,2.3,36,0.00,CLR,,0.00,WeatherDisplay:10.37,2013-11-24 20:24:00,
2013-11-24 15:25:00,28.2,4.6,30.47,NW,315,2.3,2.3,36,0.00,CLR,,0.00,WeatherDisplay:10.37,2013-11-24 20:25:00,
2013-11-24 15:28:00,28.0,4.5,30.44,WNW,292,2.3,2.3,36,0.00,CLR,,0.00,WeatherDisplay:10.37,2013-11-24 20:28:00,
2013-11-24 15:29:00,28.0,4.5,30.53,WNW,292,2.3,2.3,36,0.00,CLR,,0.00,WeatherDisplay:10.37,2013-11-24 20:29:00,
2013-11-24 15:30:00,28.0,4.5,30.53,WNW,292,2.3,2.3,36,0.00,CLR,,0.00,WeatherDisplay:10.37,2013-11-24 20:30:00,
2013-11-24 15:32:00,25.9,2.5,30.45,WNW,292,2.3,2.3,36,0.00,CLR,,0.00,WeatherDisplay:10.37,2013-11-24 20:32:00,
2013-11-24 15:33:00,25.9,3.1,30.45,WNW,292,2.3,2.3,37,0.00,CLR,,0.00,WeatherDisplay:10.37,2013-11-24 20:33:00,
2013-11-24 15:35:00,25.9,3.1,30.45,NW,315,2.3,2.3,37,0.00,CLR,,0.00,WeatherDisplay:10.37,2013-11-24 20:35:00,
2013-11-24 15:38:00,25.0,2.3,30.46,WNW,292,2.3,2.3,37,0.00,CLR,,0.00,WeatherDisplay:10.37,2013-11-24 20:38:00,
2013-11-24 15:39:00,25.0,2.3,30.50,WNW,292,2.3,2.3,37,0.00,CLR,,0.00,WeatherDisplay:10.37,2013-11-24 20:39:00,
2013-11-24 15:40:00,25.0,2.3,30.50,WSW,247,2.3,2.3,37,0.00,CLR,,0.00,WeatherDisplay:10.37,2013-11-24 20:40:00,
2013-11-24 15:41:00,25.0,2.3,30.51,WSW,247,2.3,2.3,37,0.00,CLR,,0.00,WeatherDisplay:10.37,2013-11-24 20:41:00,
2013-11-24 15:43:00,25.2,2.5,30.45,WSW,247,2.3,2.3,37,0.00,CLR,,0.00,WeatherDisplay:10.37,2013-11-24 20:43:00,
2013-11-24 15:44:00,25.2,2.5,30.45,WSW,247,2.3,2.3,37,0.00,CLR,,0.00,WeatherDisplay:10.37,2013-11-24 20:44:00,
2013-11-24 15:45:00,25.2,2.5,30.44,WSW,247,2.3,2.3,37,0.00,CLR,,0.00,WeatherDisplay:10.37,2013-11-24 20:45:00,
2013-11-24 15:46:00,25.3,2.7,30.44,NNW,337,2.3,3.3,37,0.00,CLR,,0.00,WeatherDisplay:10.37,2013-11-24 20:46:00,
2013-11-24 15:48:00,25.3,2.7,30.42,WNW,292,3.5,3.5,37,0.00,CLR,,0.00,WeatherDisplay:10.37,2013-11-24 20:48:00,
2013-11-24 15:49:00,25.3,2.7,30.40,NNW,337,3.5,3.5,37,0.00,CLR,,0.00,WeatherDisplay:10.37,2013-11-24 20:49:00,
2013-11-24 15:50:00,25.3,2.7,30.40,NNW,337,3.5,3.5,37,0.00,CLR,,0.00,WeatherDisplay:10.37,2013-11-24 20:50:00,
2013-11-24 15:52:00,25.5,2.8,30.44,NW,315,3.5,3.5,37,0.00,CLR,,0.00,WeatherDisplay:10.37,2013-11-24 20:52:00,
2013-11-24 15:53:00,25.5,2.8,30.46,SSE,157,3.5,3.5,37,0.00,CLR,,0.00,WeatherDisplay:10.37,2013-11-24 20:53:00,
2013-11-24 15:56:00,23.9,1.4,30.45,SSE,157,3.5,3.5,37,0.00,CLR,,0.00,WeatherDisplay:10.37,2013-11-24 20:56:00,
2013-11-24 15:57:00,23.9,1.4,30.39,SSE,157,3.5,3.5,37,0.00,CLR,,0.00,WeatherDisplay:10.37,2013-11-24 20:57:00,
2013-11-24 15:59:00,25.7,3.0,30.45,SSE,157,3.5,3.5,37,0.00,CLR,,0.00,WeatherDisplay:10.37,2013-11-24 20:59:00,
2013-11-24 16:01:00,25.7,3.0,30.37,NNW,337,3.5,3.5,37,0.00,CLR,,0.00,WeatherDisplay:10.37,2013-11-24 21:01:00,
2013-11-24 16:02:00,25.7,3.0,30.37,NNW,337,3.5,3.5,37,0.00,CLR,,0.00,WeatherDisplay:10.37,2013-11-24 21:02:00,
2013-11-24 16:05:00,25.7,2.4,30.42,West,270,3.5,3.5,36,0.00,CLR,,0.00,WeatherDisplay:10.37,2013-11-24 21:05:00,
2013-11-24 16:06:00,25.9,2.5,30.42,WNW,292,3.5,3.5,36,0.00,CLR,,0.00,WeatherDisplay:10.37,2013-11-24 21:06:00,
2013-11-24 16:07:00,25.9,1.9,30.39,WNW,292,3.5,3.5,35,0.00,CLR,,0.00,WeatherDisplay:10.37,2013-11-24 21:07:00,
2013-11-24 16:08:00,25.9,1.9,30.39,WNW,292,3.5,3.5,35,0.00,CLR,,0.00,WeatherDisplay:10.37,2013-11-24 21:08:00,
2013-11-24 16:10:00,25.9,1.3,30.39,NNW,337,3.5,3.5,34,0.00,CLR,,0.00,WeatherDisplay:10.37,2013-11-24 21:10:00,
2013-11-24 16:11:00,25.9,1.3,30.42,NNW,337,3.5,3.5,34,0.00,CLR,,0.00,WeatherDisplay:10.37,2013-11-24 21:11:00,
2013-11-24 16:12:00,26.1,1.5,30.42,NNW,337,3.5,3.5,34,0.00,CLR,,0.00,WeatherDisplay:10.37,2013-11-24 21:12:00,
2013-11-24 16:13:00,26.1,1.5,30.41,NW,315,3.5,3.5,34,0.00,CLR,,0.00,WeatherDisplay:10.37,2013-11-24 21:13:00,
2013-11-24 16:15:00,26.1,1.5,30.42,WNW,292,3.5,3.5,34,0.00,CLR,,0.00,WeatherDisplay:10.37,2013-11-24 21:15:00,
2013-11-24 16:16:00,26.2,1.6,30.42,WNW,292,3.5,3.5,34,0.00,CLR,,0.00,WeatherDisplay:10.37,2013-11-24 21:16:00,
2013-11-24 16:17:00,26.4,1.8,30.42,NW,315,3.5,3.5,34,0.00,CLR,,0.00,WeatherDisplay:10.37,2013-11-24 21:17:00,
2013-11-24 16:19:00,26.4,1.8,30.45,WNW,292,3.5,3.5,34,0.00,CLR,,0.00,WeatherDisplay:10.37,2013-11-24 21:19:00,
2013-11-24 16:20:00,26.4,1.8,30.45,WNW,292,3.5,3.5,34,0.00,CLR,,0.00,WeatherDisplay:10.37,2013-11-24 21:20:00,
2013-11-24 16:21:00,26.4,1.8,30.45,West,270,3.5,3.5,34,0.00,CLR,,0.00,WeatherDisplay:10.37,2013-11-24 21:21:00,
2013-11-24 16:23:00,23.0,-1.2,30.47,NNW,337,3.5,3.5,34,0.00,CLR,,0.00,WeatherDisplay:10.37,2013-11-24 21:23:00,
2013-11-24 16:24:00,23.2,-1.1,30.47,NNW,337,1.2,2.6,34,0.00,CLR,,0.00,WeatherDisplay:10.37,2013-11-24 21:24:00,
2013-11-24 16:25:00,23.2,-1.1,30.48,WNW,292,2.6,2.6,34,0.00,CLR,,0.00,WeatherDisplay:10.37,2013-11-24 21:25:00,
2013-11-24 16:26:00,23.2,-1.1,30.48,WNW,292,2.6,2.6,34,0.00,CLR,,0.00,WeatherDisplay:10.37,2013-11-24 21:26:00,
2013-11-24 16:28:00,23.4,-1.6,30.44,NW,315,2.6,2.6,33,0.00,CLR,,0.00,WeatherDisplay:10.37,2013-11-24 21:28:00,
2013-11-24 16:29:00,23.4,-1.6,30.43,WNW,292,2.6,2.6,33,0.00,CLR,,0.00,WeatherDisplay:10.37,2013-11-24 21:29:00,
2013-11-24 16:31:00,23.4,-1.6,30.44,WNW,292,2.6,2.6,33,0.00,CLR,,0.00,WeatherDisplay:10.37,2013-11-24 21:31:00,
2013-11-24 16:32:00,23.5,-1.4,30.44,WNW,292,2.6,2.6,33,0.00,CLR,,0.00,WeatherDisplay:10.37,2013-11-24 21:32:00,
2013-11-24 16:35:00,23.5,-1.4,30.47,NNW,337,2.6,2.6,33,0.00,CLR,,0.00,WeatherDisplay:10.37,2013-11-24 21:35:00,
2013-11-24 16:36:00,23.5,-1.4,30.47,NW,315,2.6,2.6,33,0.00,CLR,,0.00,WeatherDisplay:10.37,2013-11-24 21:36:00,
2013-11-24 16:37:00,23.5,-1.4,30.49,NW,315,2.6,2.6,33,0.00,CLR,,0.00,WeatherDisplay:10.37,2013-11-24 21:37:00,
2013-11-24 16:39:00,23.5,-2.1,30.46,WSW,247,2.6,2.6,32,0.00,CLR,,0.00,WeatherDisplay:10.37,2013-11-24 21:39:00,
2013-11-24 16:40:00,23.5,-2.1,30.46,South,180,2.6,2.6,32,0.00,CLR,,0.00,WeatherDisplay:10.37,2013-11-24 21:40:00,
2013-11-24 16:41:00,23.5,-2.1,30.47,South,180,2.6,2.6,32,0.00,CLR,,0.00,WeatherDisplay:10.37,2013-11-24 21:41:00,
2013-11-24 16:42:00,23.7,-1.2,30.47,South,180,2.6,2.6,33,0.00,CLR,,0.00,WeatherDisplay:10.37,2013-11-24 21:42:00,
2013-11-24 16:43:00,23.7,-1.2,30.50,WNW,292,2.6,2.6,33,0.00,CLR,,0.00,WeatherDisplay:10.37,2013-11-24 21:43:00,
2013-11-24 16:44:00,23.7,-1.2,30.50,NNW,337,2.6,0.0,33,0.00,CLR,,0.00,WeatherDisplay:10.37,2013-11-24 21:44:00,
2013-11-24 16:45:00,23.7,-1.2,30.48,NNW,337,2.6,0.0,33,0.00,CLR,,0.00,WeatherDisplay:10.37,2013-11-24 21:45:00,
2013-11-24 16:47:00,23.9,-1.1,30.48,NW,315,2.6,2.6,33,0.00,CLR,,0.00,WeatherDisplay:10.37,2013-11-24 21:47:00,
2013-11-24 16:48:00,23.9,-1.1,30.48,NW,315,2.6,0.0,33,0.00,CLR,,0.00,WeatherDisplay:10.37,2013-11-24 21:48:00,
2013-11-24 16:49:00,24.1,-1.6,30.52,WSW,247,2.6,0.0,32,0.00,CLR,,0.00,WeatherDisplay:10.37,2013-11-24 21:49:00,
2013-11-24 16:51:00,24.1,-1.6,30.46,WNW,292,2.6,0.0,32,0.00,CLR,,0.00,WeatherDisplay:10.37,2013-11-24 21:51:00,
2013-11-24 16:52:00,24.3,-1.4,30.46,WNW,292,2.6,2.6,32,0.00,CLR,,0.00,WeatherDisplay:10.37,2013-11-24 21:52:00,
2013-11-24 16:53:00,24.3,-0.8,30.53,WNW,292,2.6,2.6,33,0.00,CLR,,0.00,WeatherDisplay:10.37,2013-11-24 21:53:00,
2013-11-24 16:55:00,24.3,-0.8,30.53,WNW,292,2.6,0.0,33,0.00,CLR,,0.00,WeatherDisplay:10.37,2013-11-24 21:55:00,
2013-11-24 16:57:00,24.4,-0.6,30.43,West,270,2.6,2.6,33,0.00,CLR,,0.00,WeatherDisplay:10.37,2013-11-24 21:57:00,
2013-11-24 16:58:00,24.4,-0.6,30.43,West,270,2.6,2.6,33,0.00,CLR,,0.00,WeatherDisplay:10.37,2013-11-24 21:58:00,
2013-11-24 16:59:00,24.4,0.0,30.44,West,270,2.6,2.6,34,0.00,CLR,,0.00,WeatherDisplay:10.37,2013-11-24 21:59:00,
2013-11-24 17:00:00,24.4,0.0,30.44,NW,315,2.6,0.0,34,0.00,CLR,,0.00,WeatherDisplay:10.37,2013-11-24 22:00:00,
2013-11-24 17:01:00,24.4,0.0,30.43,NW,315,2.6,0.0,34,0.00,CLR,,0.00,WeatherDisplay:10.37,2013-11-24 22:01:00,
2013-11-24 17:02:00,24.4,0.0,30.43,WNW,292,2.6,0.0,34,0.00,CLR,,0.00,WeatherDisplay:10.37,2013-11-24 22:02:00,
2013-11-24 17:03:00,24.4,0.0,30.43,NNW,337,2.6,0.0,34,0.00,CLR,,0.00,WeatherDisplay:10.37,2013-11-24 22:03:00,
2013-11-24 17:05:00,24.4,0.7,30.44,WNW,292,2.6,0.0,35,0.00,CLR,,0.00,WeatherDisplay:10.37,2013-11-24 22:05:00,
2013-11-24 17:06:00,24.6,0.8,30.44,WNW,292,2.6,0.0,35,0.00,CLR,,0.00,WeatherDisplay:10.37,2013-11-24 22:06:00,
2013-11-24 17:07:00,24.6,0.8,30.44,WNW,292,2.6,0.0,35,0.00,CLR,,0.00,WeatherDisplay:10.37,2013-11-24 22:07:00,
2013-11-24 17:09:00,24.6,0.8,30.43,NNW,337,2.6,2.6,35,0.00,CLR,,0.00,WeatherDisplay:10.37,2013-11-24 22:09:00,
2013-11-24 17:11:00,24.6,0.8,30.43,WNW,292,2.6,0.0,35,0.00,CLR,,0.00,WeatherDisplay:10.37,2013-11-24 22:11:00,
2013-11-24 17:12:00,21.2,-2.9,30.43,NW,315,2.6,0.0,34,0.00,CLR,,0.00,WeatherDisplay:10.37,2013-11-24 22:12:00,
2013-11-24 17:15:00,21.2,-2.9,30.39,NW,315,2.6,0.0,34,0.00,CLR,,0.00,WeatherDisplay:10.37,2013-11-24 22:15:00,
2013-11-24 17:16:00,21.2,-2.9,30.39,NW,315,2.6,0.0,34,0.00,CLR,,0.00,WeatherDisplay:10.37,2013-11-24 22:16:00,
2013-11-24 17:17:00,21.2,-2.9,30.46,NW,315,2.6,0.0,34,0.00,CLR,,0.00,WeatherDisplay:10.37,2013-11-24 22:17:00,
2013-11-24 17:18:00,21.2,-2.9,30.46,ESE,112,2.6,0.0,34,0.00,CLR,,0.00,WeatherDisplay:10.37,2013-11-24 22:18:00,
2013-11-24 17:22:00,21.2,-2.9,30.38,West,270,2.6,2.6,34,0.00,CLR,,0.00,WeatherDisplay:10.37,2013-11-24 22:22:00,
2013-11-24 17:23:00,21.2,-2.9,30.37,WNW,292,2.3,0.0,34,0.00,CLR,,0.00,WeatherDisplay:10.37,2013-11-24 22:23:00,
2013-11-24 17:25:00,21.2,-2.9,30.36,WNW,292,0.3,0.0,34,0.00,CLR,,0.00,WeatherDisplay:10.37,2013-11-24 22:25:00,
2013-11-24 17:28:00,21.2,-2.9,30.34,WNW,292,1.2,1.2,34,0.00,CLR,,0.00,WeatherDisplay:10.37,2013-11-24 22:28:00,
2013-11-24 17:29:00,21.2,-2.9,30.42,WNW,292,1.2,1.2,34,0.00,CLR,,0.00,WeatherDisplay:10.37,2013-11-24 22:29:00,
2013-11-24 17:30:00,21.4,-2.7,30.42,WNW,292,1.2,1.2,34,0.00,CLR,,0.00,WeatherDisplay:10.37,2013-11-24 22:30:00,
2013-11-24 17:31:00,21.4,-3.3,30.41,WNW,292,1.2,1.2,33,0.00,CLR,,0.00,WeatherDisplay:10.37,2013-11-24 22:31:00,
2013-11-24 17:33:00,21.4,-4.0,30.40,South,180,1.2,1.2,32,0.00,CLR,,0.00,WeatherDisplay:10.37,2013-11-24 22:33:00,
2013-11-24 17:35:00,21.6,-4.5,30.35,WSW,247,1.2,1.2,31,0.00,CLR,,0.00,WeatherDisplay:10.37,2013-11-24 22:35:00,
2013-11-24 17:36:00,21.6,-4.5,30.35,WSW,247,1.2,0.0,31,0.00,CLR,,0.00,WeatherDisplay:10.37,2013-11-24 22:36:00,
2013-11-24 17:37:00,21.6,-4.5,30.44,WSW,247,1.2,0.0,31,0.00,CLR,,0.00,WeatherDisplay:10.37,2013-11-24 22:37:00,
2013-11-24 17:39:00,21.7,-4.3,30.40,SW,225,1.2,0.0,31,0.00,CLR,,0.00,WeatherDisplay:10.37,2013-11-24 22:39:00,
2013-11-24 17:40:00,21.7,-4.3,30.40,SW,225,1.2,0.0,31,0.00,CLR,,0.00,WeatherDisplay:10.37,2013-11-24 22:40:00,
2013-11-24 17:42:00,21.7,-3.6,30.37,WNW,292,1.2,0.0,32,0.00,CLR,,0.00,WeatherDisplay:10.37,2013-11-24 22:42:00,
2013-11-24 17:43:00,21.7,-3.6,30.40,West,270,1.2,0.0,32,0.00,CLR,,0.00,WeatherDisplay:10.37,2013-11-24 22:43:00,
2013-11-24 17:46:00,21.9,-3.5,30.37,West,270,1.2,0.0,32,0.00,CLR,,0.00,WeatherDisplay:10.37,2013-11-24 22:46:00,
2013-11-24 17:47:00,21.9,-3.5,30.34,NW,315,1.2,0.0,32,0.00,CLR,,0.00,WeatherDisplay:10.37,2013-11-24 22:47:00,
2013-11-24 17:48:00,21.9,-3.5,30.34,West,270,1.2,1.2,32,0.00,CLR,,0.00,WeatherDisplay:10.37,2013-11-24 22:48:00,
2013-11-24 17:50:00,21.9,-4.1,30.33,West,270,1.2,0.0,31,0.00,CLR,,0.00,WeatherDisplay:10.37,2013-11-24 22:50:00,
2013-11-24 17:51:00,21.9,-4.1,30.35,WNW,292,1.2,0.0,31,0.00,CLR,,0.00,WeatherDisplay:10.37,2013-11-24 22:51:00,
2013-11-24 17:52:00,21.9,-4.8,30.35,WNW,292,1.2,0.0,30,0.00,CLR,,0.00,WeatherDisplay:10.37,2013-11-24 22:52:00,
2013-11-24 17:54:00,21.9,-4.8,30.36,NW,315,1.2,0.0,30,0.00,CLR,,0.00,WeatherDisplay:10.37,2013-11-24 22:54:00,
2013-11-24 17:55:00,21.9,-4.8,30.36,NW,315,1.2,0.0,30,0.00,CLR,,0.00,WeatherDisplay:10.37,2013-11-24 22:55:00,
2013-11-24 17:56:00,21.9,-4.8,30.36,NW,315,1.2,0.0,30,0.00,CLR,,0.00,WeatherDisplay:10.37,2013-11-24 22:56:00,
2013-11-24 17:58:00,21.9,-4.8,30.38,NW,315,1.2,0.0,30,0.00,CLR,,0.00,WeatherDisplay:10.37,2013-11-24 22:58:00,
2013-11-24 17:59:00,21.9,-4.8,30.39,NW,315,1.2,0.0,30,0.00,CLR,,0.00,WeatherDisplay:10.37,2013-11-24 22:59:00,
2013-11-24 18:00:00,22.1,-4.0,30.39,WNW,292,1.2,0.0,31,0.00,CLR,,0.00,WeatherDisplay:10.37,2013-11-24 23:00:00,
2013-11-24 18:01:00,22.1,-4.7,30.41,WNW,292,1.2,0.0,30,0.00,CLR,,0.00,WeatherDisplay:10.37,2013-11-24 23:01:00,
2013-11-24 18:03:00,22.1,-4.0,30.43,NW,315,1.2,0.0,31,0.00,CLR,,0.00,WeatherDisplay:10.37,2013-11-24 23:03:00,
2013-11-24 18:04:00,22.3,-3.8,30.43,NW,315,1.2,0.0,31,0.00,CLR,,0.00,WeatherDisplay:10.37,2013-11-24 23:04:00,
2013-11-24 18:05:00,22.3,-3.8,30.43,NW,315,1.2,0.0,31,0.00,CLR,,0.00,WeatherDisplay:10.37,2013-11-24 23:05:00,
2013-11-24 18:07:00,22.3,-3.2,30.45,NW,315,1.2,0.0,32,0.00,CLR,,0.00,WeatherDisplay:10.37,2013-11-24 23:07:00,
2013-11-24 18:10:00,22.3,-3.2,30.50,NW,315,1.2,0.0,32,0.00,CLR,,0.00,WeatherDisplay:10.37,2013-11-24 23:10:00,
2013-11-24 18:11:00,22.3,-3.2,30.51,WNW,292,1.2,0.0,32,0.00,CLR,,0.00,WeatherDisplay:10.37,2013-11-24 23:11:00,
2013-11-24 18:12:00,22.5,-3.0,30.51,WNW,292,1.2,0.0,32,0.00,CLR,,0.00,WeatherDisplay:10.37,2013-11-24 23:12:00,
2013-11-24 18:14:00,22.5,-3.7,30.42,NW,315,1.2,0.0,31,0.00,CLR,,0.00,WeatherDisplay:10.37,2013-11-24 23:14:00,
2013-11-24 18:15:00,22.5,-3.7,30.44,NW,315,1.2,0.0,31,0.00,CLR,,0.00,WeatherDisplay:10.37,2013-11-24 23:15:00,
2013-11-24 18:17:00,22.5,-3.7,30.44,NW,315,1.2,0.0,31,0.00,CLR,,0.00,WeatherDisplay:10.37,2013-11-24 23:17:00,
2013-11-24 18:19:00,22.6,-4.2,30.45,NW,315,1.2,0.0,30,0.00,CLR,,0.00,WeatherDisplay:10.37,2013-11-24 23:19:00,
2013-11-24 18:20:00,22.8,-4.0,30.45,NW,315,1.2,0.0,30,0.00,CLR,,0.00,WeatherDisplay:10.37,2013-11-24 23:20:00,
2013-11-24 18:22:00,22.8,-4.0,30.50,NW,315,1.2,0.0,30,0.00,CLR,,0.00,WeatherDisplay:10.37,2013-11-24 23:22:00,
2013-11-24 18:23:00,22.8,-4.0,30.50,NNW,337,0.0,0.0,30,0.00,CLR,,0.00,WeatherDisplay:10.37,2013-11-24 23:23:00,
2013-11-24 18:25:00,19.4,-6.4,30.40,NNW,337,0.0,0.0,31,0.00,CLR,,0.00,WeatherDisplay:10.37,2013-11-24 23:25:00,
2013-11-24 18:27:00,19.4,-6.4,30.40,NW,315,0.0,0.0,31,0.00,CLR,,0.00,WeatherDisplay:10.37,2013-11-24 23:27:00,
2013-11-24 18:28:00,19.6,-5.6,30.40,South,180,0.0,0.0,32,0.00,CLR,,0.00,WeatherDisplay:10.37,2013-11-24 23:28:00,
2013-11-24 18:29:00,19.6,-5.6,30.40,South,180,0.0,0.0,32,0.00,CLR,,0.00,WeatherDisplay:10.37,2013-11-24 23:29:00,
2013-11-24 18:30:00,19.6,-4.9,30.45,South,180,0.0,0.0,33,0.00,CLR,,0.00,WeatherDisplay:10.37,2013-11-24 23:30:00,
2013-11-24 18:31:00,19.6,-4.9,30.45,South,180,0.0,0.0,33,0.00,CLR,,0.00,WeatherDisplay:10.37,2013-11-24 23:31:00,
2013-11-24 18:34:00,19.8,-4.8,30.42,South,180,0.0,0.0,33,0.00,CLR,,0.00,WeatherDisplay:10.37,2013-11-24 23:34:00,
2013-11-24 18:35:00,19.8,-4.8,30.42,South,180,0.0,0.0,33,0.00,CLR,,0.00,WeatherDisplay:10.37,2013-11-24 23:35:00,
2013-11-24 18:36:00,19.8,-4.8,30.43,South,180,0.0,0.0,33,0.00,CLR,,0.00,WeatherDisplay:10.37,2013-11-24 23:36:00,
2013-11-24 18:40:00,20.1,-4.4,30.42,South,180,0.0,0.0,33,0.00,CLR,,0.00,WeatherDisplay:10.37,2013-11-24 23:40:00,
2013-11-24 18:41:00,20.1,-4.4,30.42,South,180,0.0,0.0,33,0.00,CLR,,0.00,WeatherDisplay:10.37,2013-11-24 23:41:00,
2013-11-24 18:42:00,20.1,-4.4,30.41,South,180,0.0,0.0,33,0.00,CLR,,0.00,WeatherDisplay:10.37,2013-11-24 23:42:00,
2013-11-24 18:44:00,20.3,-4.3,30.39,South,180,0.0,0.0,33,0.00,CLR,,0.00,WeatherDisplay:10.37,2013-11-24 23:44:00,
2013-11-24 18:46:00,20.3,-3.7,30.43,South,180,0.0,0.0,34,0.00,CLR,,0.00,WeatherDisplay:10.37,2013-11-24 23:46:00,
2013-11-24 18:47:00,20.5,-3.5,30.43,South,180,0.0,0.0,34,0.00,CLR,,0.00,WeatherDisplay:10.37,2013-11-24 23:47:00,
2013-11-24 18:48:00,20.5,-3.5,30.38,South,180,0.0,0.0,34,0.00,CLR,,0.00,WeatherDisplay:10.37,2013-11-24 23:48:00,
2013-11-24 18:49:00,20.5,-3.5,30.38,South,180,0.0,0.0,34,0.00,CLR,,0.00,WeatherDisplay:10.37,2013-11-24 23:49:00,
2013-11-24 18:51:00,20.5,-3.5,30.43,South,180,0.0,0.0,34,0.00,CLR,,0.00,WeatherDisplay:10.37,2013-11-24 23:51:00,
2013-11-24 18:52:00,20.5,-3.5,30.40,South,180,0.0,0.0,34,0.00,CLR,,0.00,WeatherDisplay:10.37,2013-11-24 23:52:00,
2013-11-24 18:53:00,20.7,-3.3,30.40,South,180,0.0,0.0,34,0.00,CLR,,0.00,WeatherDisplay:10.37,2013-11-24 23:53:00,
2013-11-24 18:54:00,20.7,-4.0,30.42,South,180,0.0,0.0,33,0.00,CLR,,0.00,WeatherDisplay:10.37,2013-11-24 23:54:00,
2013-11-24 18:55:00,20.7,-4.0,30.42,South,180,0.0,0.0,33,0.00,CLR,,0.00,WeatherDisplay:10.37,2013-11-24 23:55:00,
2013-11-24 18:56:00,20.8,-3.8,30.39,South,180,0.0,0.0,33,0.00,CLR,,0.00,WeatherDisplay:10.37,2013-11-24 23:56:00,
2013-11-24 18:58:00,20.8,-3.8,30.38,South,180,0.0,0.0,33,0.00,CLR,,0.00,WeatherDisplay:10.37,2013-11-24 23:58:00,
2013-11-24 19:00:00,20.8,-3.8,30.38,South,180,0.0,0.0,33,0.00,CLR,,0.00,WeatherDisplay:10.37,2013-11-25 00:00:00,
2013-11-24 19:01:00,21.0,-3.6,30.38,South,180,0.0,0.0,33,0.00,CLR,,0.00,WeatherDisplay:10.37,2013-11-25 00:01:00,
2013-11-24 19:03:00,21.0,-3.6,30.38,South,180,0.0,0.0,33,0.00,CLR,,0.00,WeatherDisplay:10.37,2013-11-25 00:03:00,
2013-11-24 19:05:00,17.6,-6.7,30.38,South,180,0.0,0.0,33,0.00,CLR,,0.00,WeatherDisplay:10.37,2013-11-25 00:05:00,
2013-11-24 19:06:00,17.6,-7.3,30.38,South,180,0.0,0.0,32,0.00,CLR,,0.00,WeatherDisplay:10.37,2013-11-25 00:06:00,
2013-11-24 19:07:00,17.6,-7.3,30.38,South,180,0.0,0.0,32,0.00,CLR,,0.00,WeatherDisplay:10.37,2013-11-25 00:07:00,
2013-11-24 19:08:00,17.6,-7.3,30.38,South,180,0.0,0.0,32,0.00,CLR,,0.00,WeatherDisplay:10.37,2013-11-25 00:08:00,
2013-11-24 19:09:00,17.8,-7.2,30.38,South,180,0.0,0.0,32,0.00,CLR,,0.00,WeatherDisplay:10.37,2013-11-25 00:09:00,
2013-11-24 19:13:00,17.8,-7.2,30.37,South,180,0.0,0.0,32,0.00,CLR,,0.00,WeatherDisplay:10.37,2013-11-25 00:13:00,
2013-11-24 19:14:00,17.8,-7.2,30.37,SSE,157,0.0,0.0,32,0.00,CLR,,0.00,WeatherDisplay:10.37,2013-11-25 00:14:00,
2013-11-24 19:16:00,17.8,-7.2,30.37,SSE,157,0.0,0.0,32,0.00,CLR,,0.00,WeatherDisplay:10.37,2013-11-25 00:16:00,
2013-11-24 19:17:00,17.8,-7.2,30.37,SSE,157,0.0,0.0,32,0.00,CLR,,0.00,WeatherDisplay:10.37,2013-11-25 00:17:00,
2013-11-24 19:19:00,18.0,-7.0,30.39,SSE,157,0.0,0.0,32,0.00,CLR,,0.00,WeatherDisplay:10.37,2013-11-25 00:19:00,
2013-11-24 19:20:00,18.0,-7.6,30.37,SSE,157,0.0,0.0,31,0.00,CLR,,0.00,WeatherDisplay:10.37,2013-11-25 00:20:00,
2013-11-24 19:21:00,18.0,-7.6,30.37,SW,225,0.0,0.0,31,0.00,CLR,,0.00,WeatherDisplay:10.37,2013-11-25 00:21:00,
2013-11-24 19:22:00,18.0,-7.6,30.41,SW,225,0.0,0.0,31,0.00,CLR,,0.00,WeatherDisplay:10.37,2013-11-25 00:22:00,
2013-11-24 19:23:00,18.0,-7.6,30.41,SW,225,0.0,0.0,31,0.00,CLR,,0.00,WeatherDisplay:10.37,2013-11-25 00:23:00,
2013-11-24 19:25:00,18.1,-7.5,30.39,SW,225,0.0,0.0,31,0.00,CLR,,0.00,WeatherDisplay:10.37,2013-11-25 00:25:00,
2013-11-24 19:26:00,18.1,-7.5,30.38,SW,225,0.0,0.0,31,0.00,CLR,,0.00,WeatherDisplay:10.37,2013-11-25 00:26:00,
2013-11-24 19:27:00,18.1,-7.5,30.38,SW,225,0.0,0.0,31,0.00,CLR,,0.00,WeatherDisplay:10.37,2013-11-25 00:27:00,
2013-11-24 19:30:00,18.1,-8.2,30.38,SW,225,0.0,0.0,30,0.00,CLR,,0.00,WeatherDisplay:10.37,2013-11-25 00:30:00,
2013-11-24 19:31:00,18.1,-8.2,30.38,SW,225,0.0,0.0,30,0.00,CLR,,0.00,WeatherDisplay:10.37,2013-11-25 00:31:00,
2013-11-24 19:32:00,18.1,-8.2,30.38,SW,225,0.0,0.0,30,0.00,CLR,,0.00,WeatherDisplay:10.37,2013-11-25 00:32:00,
2013-11-24 19:34:00,18.1,-7.5,30.38,SSW,202,0.0,0.0,31,0.00,CLR,,0.00,WeatherDisplay:10.37,2013-11-25 00:34:00,
2013-11-24 19:36:00,18.1,-8.2,30.39,WSW,247,0.0,0.0,30,0.00,CLR,,0.00,WeatherDisplay:10.37,2013-11-25 00:36:00,
2013-11-24 19:37:00,18.1,-8.2,30.37,WSW,247,0.0,0.0,30,0.00,CLR,,0.00,WeatherDisplay:10.37,2013-11-25 00:37:00,
2013-11-24 19:38:00,18.0,-8.3,30.37,WSW,247,0.0,0.0,30,0.00,CLR,,0.00,WeatherDisplay:10.37,2013-11-25 00:38:00,
2013-11-24 19:39:00,18.0,-8.3,30.38,WSW,247,0.0,0.0,30,0.00,CLR,,0.00,WeatherDisplay:10.37,2013-11-25 00:39:00,
2013-11-24 19:41:00,17.8,-8.5,30.38,SW,225,0.0,0.0,30,0.00,CLR,,0.00,WeatherDisplay:10.37,2013-11-25 00:41:00,
2013-11-24 19:42:00,17.8,-8.5,30.38,SW,225,0.0,0.0,30,0.00,CLR,,0.00,WeatherDisplay:10.37,2013-11-25 00:42:00,
2013-11-24 19:43:00,17.8,-8.5,30.40,SW,225,0.0,0.0,30,0.00,CLR,,0.00,WeatherDisplay:10.37,2013-11-25 00:43:00,
2013-11-24 19:45:00,17.8,-7.8,30.38,SW,225,0.0,0.0,31,0.00,CLR,,0.00,WeatherDisplay:10.37,2013-11-25 00:45:00,
2013-11-24 19:47:00,17.8,-7.8,30.39,SW,225,0.0,0.0,31,0.00,CLR,,0.00,WeatherDisplay:10.37,2013-11-25 00:47:00,
2013-11-24 19:48:00,17.6,-8.0,30.39,SW,225,0.0,0.0,31,0.00,CLR,,0.00,WeatherDisplay:10.37,2013-11-25 00:48:00,
2013-11-24 19:49:00,17.6,-8.0,30.41,SW,225,0.0,0.0,31,0.00,CLR,,0.00,WeatherDisplay:10.37,2013-11-25 00:49:00,
2013-11-24 20:15:00,20.5,-5.4,30.32,WSW,247,1.2,1.2,31,0.00,CLR,,0.00,WeatherDisplay:10.37,2013-11-25 01:15:00,
2013-11-24 20:24:00,20.1,-5.7,30.33,SW,225,1.2,0.0,31,0.00,CLR,,0.00,WeatherDisplay:10.37,2013-11-25 01:24:00,
2013-11-24 20:54:00,20.1,-5.1,30.33,SW,225,1.2,0.0,32,0.00,CLR,,0.00,WeatherDisplay:10.37,2013-11-25 01:54:00,
2013-11-24 20:55:00,20.1,-5.1,30.31,SW,225,1.7,0.0,32,0.00,CLR,,0.00,WeatherDisplay:10.37,2013-11-25 01:55:00,
2013-11-24 20:58:00,22.8,-3.4,30.30,SW,225,1.7,1.7,31,0.00,CLR,,0.00,WeatherDisplay:10.37,2013-11-25 01:58:00,
2013-11-24 21:00:00,22.8,-3.4,30.33,WSW,247,1.7,1.7,31,0.00,CLR,,0.00,WeatherDisplay:10.37,2013-11-25 02:00:00,
2013-11-24 21:01:00,22.8,-3.4,30.33,WSW,247,1.7,0.0,31,0.00,CLR,,0.00,WeatherDisplay:10.37,2013-11-25 02:01:00,
2013-11-24 21:02:00,22.8,-3.4,30.33,WSW,247,1.7,0.0,31,0.00,CLR,,0.00,WeatherDisplay:10.37,2013-11-25 02:02:00,
2013-11-24 21:04:00,22.8,-3.4,30.38,SW,225,1.7,0.0,31,0.00,CLR,,0.00,WeatherDisplay:10.37,2013-11-25 02:04:00,
2013-11-24 21:05:00,22.8,-3.4,30.36,SW,225,1.7,0.0,31,0.00,CLR,,0.00,WeatherDisplay:10.37,2013-11-25 02:05:00,
2013-11-24 21:06:00,22.8,-3.4,30.36,West,270,1.7,0.0,31,0.00,CLR,,0.00,WeatherDisplay:10.37,2013-11-25 02:06:00,
2013-11-24 21:07:00,22.8,-3.4,30.36,West,270,1.7,0.0,31,0.00,CLR,,0.00,WeatherDisplay:10.37,2013-11-25 02:07:00,
2013-11-24 21:10:00,22.8,-3.4,30.33,WSW,247,1.7,1.7,31,0.00,CLR,,0.00,WeatherDisplay:10.37,2013-11-25 02:10:00,
2013-11-24 21:11:00,22.8,-4.0,30.35,WSW,247,1.7,1.7,30,0.00,CLR,,0.00,WeatherDisplay:10.37,2013-11-25 02:11:00,
2013-11-24 21:12:00,22.8,-4.0,30.35,WSW,247,1.7,1.7,30,0.00,CLR,,0.00,WeatherDisplay:10.37,2013-11-25 02:12:00,
2013-11-24 21:13:00,22.6,-3.5,30.34,South,180,1.7,1.7,31,0.00,CLR,,0.00,WeatherDisplay:10.37,2013-11-25 02:13:00,
2013-11-24 21:14:00,22.6,-3.5,30.34,WSW,247,1.7,0.0,31,0.00,CLR,,0.00,WeatherDisplay:10.37,2013-11-25 02:14:00,
2013-11-24 21:16:00,22.6,-4.2,30.35,WSW,247,1.7,0.0,30,0.00,CLR,,0.00,WeatherDisplay:10.37,2013-11-25 02:16:00,
2013-11-24 21:17:00,22.6,-4.2,30.39,WSW,247,1.7,0.0,30,0.00,CLR,,0.00,WeatherDisplay:10.37,2013-11-25 02:17:00,
2013-11-24 21:18:00,22.6,-4.2,30.39,SSE,157,1.7,0.0,30,0.00,CLR,,0.00,WeatherDisplay:10.37,2013-11-25 02:18:00,
2013-11-24 21:20:00,22.5,-3.7,30.39,SSE,157,1.7,1.7,31,0.00,CLR,,0.00,WeatherDisplay:10.37,2013-11-25 02:20:00,
2013-11-24 21:21:00,22.5,-3.7,30.39,WSW,247,1.2,1.2,31,0.00,CLR,,0.00,WeatherDisplay:10.37,2013-11-25 02:21:00,
2013-11-24 21:22:00,22.5,-3.7,30.34,WSW,247,1.2,1.2,31,0.00,CLR,,0.00,WeatherDisplay:10.37,2013-11-25 02:22:00,
2013-11-24 21:24:00,22.5,-3.7,30.35,SSW,202,1.7,1.7,31,0.00,CLR,,0.00,WeatherDisplay:10.37,2013-11-25 02:24:00,
2013-11-24 21:25:00,22.5,-3.7,30.35,SSW,202,1.7,1.7,31,0.00,CLR,,0.00,WeatherDisplay:10.37,2013-11-25 02:25:00,
2013-11-24 21:26:00,22.5,-3.7,30.35,SSW,202,1.7,1.7,31,0.00,CLR,,0.00,WeatherDisplay:10.37,2013-11-25 02:26:00,
2013-11-24 21:27:00,22.5,-3.7,30.28,South,180,1.7,1.7,31,0.00,CLR,,0.00,WeatherDisplay:10.37,2013-11-25 02:27:00,
2013-11-24 21:30:00,22.5,-3.0,30.25,West,270,1.7,0.0,32,0.00,CLR,,0.00,WeatherDisplay:10.37,2013-11-25 02:30:00,
2013-11-24 21:31:00,22.5,-3.0,30.30,West,270,1.7,0.0,32,0.00,CLR,,0.00,WeatherDisplay:10.37,2013-11-25 02:31:00,
2013-11-24 21:34:00,22.5,-3.0,30.28,NW,315,1.7,1.7,32,0.00,CLR,,0.00,WeatherDisplay:10.37,2013-11-25 02:34:00,
2013-11-24 21:36:00,22.5,-3.0,30.26,SW,225,1.7,0.0,32,0.00,CLR,,0.00,WeatherDisplay:10.37,2013-11-25 02:36:00,
2013-11-24 21:39:00,22.5,-3.7,30.25,SW,225,1.7,0.0,31,0.00,CLR,,0.00,WeatherDisplay:10.37,2013-11-25 02:39:00,
2013-11-24 21:40:00,22.5,-3.7,30.25,SW,225,1.7,0.0,31,0.00,CLR,,0.00,WeatherDisplay:10.37,2013-11-25 02:40:00,
2013-11-24 21:41:00,22.6,-3.5,30.32,South,180,1.7,0.0,31,0.00,CLR,,0.00,WeatherDisplay:10.37,2013-11-25 02:41:00,
2013-11-24 21:42:00,22.6,-3.5,30.32,South,180,1.7,0.0,31,0.00,CLR,,0.00,WeatherDisplay:10.37,2013-11-25 02:42:00,
2013-11-24 21:44:00,22.6,-2.8,30.31,South,180,1.7,1.7,32,0.00,CLR,,0.00,WeatherDisplay:10.37,2013-11-25 02:44:00,
2013-11-24 21:46:00,22.5,-3.0,30.35,SW,225,1.7,1.7,32,0.00,CLR,,0.00,WeatherDisplay:10.37,2013-11-25 02:46:00,
2013-11-24 21:47:00,22.5,-2.4,30.30,SW,225,1.7,1.7,33,0.00,CLR,,0.00,WeatherDisplay:10.37,2013-11-25 02:47:00,
2013-11-24 21:48:00,22.6,-2.2,30.30,SW,225,1.7,1.7,33,0.00,CLR,,0.00,WeatherDisplay:10.37,2013-11-25 02:48:00,
2013-11-24 21:49:00,22.6,-2.8,30.35,West,270,1.7,0.0,32,0.00,CLR,,0.00,WeatherDisplay:10.37,2013-11-25 02:49:00,
2013-11-24 21:50:00,22.6,-2.8,30.35,West,270,1.7,0.0,32,0.00,CLR,,0.00,WeatherDisplay:10.37,2013-11-25 02:50:00,
2013-11-24 21:52:00,22.6,-2.8,30.32,West,270,1.7,1.7,32,0.00,CLR,,0.00,WeatherDisplay:10.37,2013-11-25 02:52:00,
2013-11-24 21:53:00,22.6,-2.8,30.32,NW,315,1.7,0.0,32,0.00,CLR,,0.00,WeatherDisplay:10.37,2013-11-25 02:53:00,
2013-11-24 21:56:00,22.6,-2.8,30.35,SW,225,1.7,0.0,32,0.00,CLR,,0.00,WeatherDisplay:10.37,2013-11-25 02:56:00,
2013-11-24 21:58:00,22.6,-2.8,30.36,South,180,1.7,1.7,32,0.00,CLR,,0.00,WeatherDisplay:10.37,2013-11-25 02:58:00,
2013-11-24 21:59:00,22.6,-2.8,30.36,NNW,337,1.7,0.0,32,0.00,CLR,,0.00,WeatherDisplay:10.37,2013-11-25 02:59:00,
2013-11-24 22:00:00,22.6,-2.8,30.31,NNW,337,1.7,0.0,32,0.00,CLR,,0.00,WeatherDisplay:10.37,2013-11-25 03:00:00,
2013-11-24 22:03:00,22.6,-3.5,30.39,NW,315,1.7,1.7,31,0.00,CLR,,0.00,WeatherDisplay:10.37,2013-11-25 03:03:00,
2013-11-24 22:04:00,22.6,-3.5,30.36,West,270,1.7,1.7,31,0.00,CLR,,0.00,WeatherDisplay:10.37,2013-11-25 03:04:00,
2013-11-24 22:05:00,22.6,-3.5,30.36,West,270,1.7,1.7,31,0.00,CLR,,0.00,WeatherDisplay:10.37,2013-11-25 03:05:00,
2013-11-24 22:06:00,22.6,-3.5,30.34,SW,225,2.3,2.3,31,0.00,CLR,,0.00,WeatherDisplay:10.37,2013-11-25 03:06:00,
2013-11-24 22:08:00,22.6,-3.5,30.34,SW,225,2.3,0.0,31,0.00,CLR,,0.00,WeatherDisplay:10.37,2013-11-25 03:08:00,
2013-11-24 22:10:00,22.6,-4.2,30.35,WSW,247,2.3,0.0,30,0.00,CLR,,0.00,WeatherDisplay:10.37,2013-11-25 03:10:00,
2013-11-24 22:11:00,22.6,-3.5,30.32,WSW,247,2.3,0.0,31,0.00,CLR,,0.00,WeatherDisplay:10.37,2013-11-25 03:11:00,
2013-11-24 22:13:00,22.6,-2.8,30.30,WSW,247,2.3,0.0,32,0.00,CLR,,0.00,WeatherDisplay:10.37,2013-11-25 03:13:00,
2013-11-24 22:14:00,22.6,-2.8,30.30,SW,225,2.3,2.3,32,0.00,CLR,,0.00,WeatherDisplay:10.37,2013-11-25 03:14:00,
2013-11-24 22:15:00,22.6,-2.2,30.22,SW,225,2.3,2.3,33,0.00,CLR,,0.00,WeatherDisplay:10.37,2013-11-25 03:15:00,
2013-11-24 22:17:00,22.6,-1.6,30.21,West,270,2.3,0.0,34,0.00,CLR,,0.00,WeatherDisplay:10.37,2013-11-25 03:17:00,
2013-11-24 22:18:00,22.8,-0.8,30.18,West,270,2.3,0.0,35,0.00,CLR,,0.00,WeatherDisplay:10.37,2013-11-25 03:18:00,
2013-11-24 22:19:00,22.8,-0.8,30.18,West,270,2.3,0.0,35,0.00,CLR,,0.00,WeatherDisplay:10.37,2013-11-25 03:19:00,
2013-11-24 22:21:00,22.8,-0.8,30.16,WSW,247,2.3,2.3,35,0.00,CLR,,0.00,WeatherDisplay:10.37,2013-11-25 03:21:00,
2013-11-24 22:22:00,22.8,-0.8,30.15,WSW,247,0.3,0.3,35,0.00,CLR,,0.00,WeatherDisplay:10.37,2013-11-25 03:22:00,
2013-11-24 22:24:00,22.8,-0.8,30.15,WSW,247,1.3,1.3,35,0.00,CLR,,0.00,WeatherDisplay:10.37,2013-11-25 03:24:00,
2013-11-24 22:25:00,22.8,-0.8,30.15,WSW,247,1.3,1.3,35,0.00,CLR,,0.00,WeatherDisplay:10.37,2013-11-25 03:25:00,
2013-11-24 22:27:00,22.8,-0.2,30.13,SW,225,1.3,1.3,36,0.00,CLR,,0.00,WeatherDisplay:10.37,2013-11-25 03:27:00,
2013-11-24 22:28:00,22.8,-0.2,30.12,SW,225,1.7,1.7,36,0.00,CLR,,0.00,WeatherDisplay:10.37,2013-11-25 03:28:00,
2013-11-24 22:29:00,22.8,-0.8,30.15,SW,225,1.7,1.7,35,0.00,CLR,,0.00,WeatherDisplay:10.37,2013-11-25 03:29:00,
2013-11-24 22:30:00,19.4,-3.8,30.15,WSW,247,1.7,1.7,35,0.00,CLR,,0.00,WeatherDisplay:10.37,2013-11-25 03:30:00,
2013-11-24 22:31:00,19.4,-3.8,30.16,WSW,247,1.7,1.7,35,0.00,CLR,,0.00,WeatherDisplay:10.37,2013-11-25 03:31:00,
2013-11-24 22:33:00,19.4,-3.8,30.10,WSW,247,1.7,1.7,35,0.00,CLR,,0.00,WeatherDisplay:10.37,2013-11-25 03:33:00,
2013-11-24 22:34:00,19.4,-3.8,30.10,WSW,247,1.7,1.7,35,0.00,CLR,,0.00,WeatherDisplay:10.37,2013-11-25 03:34:00,
2013-11-24 22:35:00,19.4,-3.8,30.10,WSW,247,1.7,1.7,35,0.00,CLR,,0.00,WeatherDisplay:10.37,2013-11-25 03:35:00,
2013-11-24 22:36:00,19.4,-3.8,30.10,WSW,247,1.7,0.0,35,0.00,CLR,,0.00,WeatherDisplay:10.37,2013-11-25 03:36:00,
2013-11-24 22:37:00,19.4,-3.8,30.20,South,180,1.7,0.0,35,0.00,CLR,,0.00,WeatherDisplay:10.37,2013-11-25 03:37:00,
2013-11-24 22:38:00,19.4,-3.8,30.20,South,180,1.7,0.0,35,0.00,CLR,,0.00,WeatherDisplay:10.37,2013-11-25 03:38:00,
2013-11-24 22:39:00,19.4,-3.3,30.15,South,180,1.7,0.0,36,0.00,CLR,,0.00,WeatherDisplay:10.37,2013-11-25 03:39:00,
2013-11-24 22:40:00,19.4,-3.3,30.15,West,270,1.7,0.0,36,0.00,CLR,,0.00,WeatherDisplay:10.37,2013-11-25 03:40:00,
2013-11-24 22:41:00,19.4,-3.3,30.14,West,270,1.7,0.0,36,0.00,CLR,,0.00,WeatherDisplay:10.37,2013-11-25 03:41:00,
2013-11-24 22:42:00,19.4,-3.3,30.14,ENE,67,1.7,0.0,36,0.00,CLR,,0.00,WeatherDisplay:10.37,2013-11-25 03:42:00,
2013-11-24 22:43:00,19.6,-3.1,30.15,ENE,67,1.7,0.0,36,0.00,CLR,,0.00,WeatherDisplay:10.37,2013-11-25 03:43:00,
2013-11-24 22:44:00,19.6,-3.1,30.15,South,180,2.3,0.0,36,0.00,CLR,,0.00,WeatherDisplay:10.37,2013-11-25 03:44:00,
2013-11-24 22:46:00,19.6,-3.1,30.13,SW,225,2.3,2.3,36,0.00,CLR,,0.00,WeatherDisplay:10.37,2013-11-25 03:46:00,
2013-11-24 22:47:00,19.6,-3.1,30.13,SW,225,2.3,2.3,36,0.00,CLR,,0.00,WeatherDisplay:10.37,2013-11-25 03:47:00,
2013-11-24 22:48:00,19.6,-3.1,30.13,SW,225,2.3,2.3,36,0.00,CLR,,0.00,WeatherDisplay:10.37,2013-11-25 03:48:00,
2013-11-24 22:49:00,19.6,-3.1,30.19,North,0,2.3,2.3,36,0.00,CLR,,0.00,WeatherDisplay:10.37,2013-11-25 03:49:00,
2013-11-24 22:52:00,19.6,-3.1,30.12,WSW,247,2.3,2.3,36,0.00,CLR,,0.00,WeatherDisplay:10.37,2013-11-25 03:52:00,
2013-11-24 22:53:00,19.6,-3.1,30.12,WSW,247,2.4,2.4,36,0.00,CLR,,0.00,WeatherDisplay:10.37,2013-11-25 03:53:00,
2013-11-24 22:54:00,19.8,-2.9,30.12,WSW,247,2.4,2.4,36,0.00,CLR,,0.00,WeatherDisplay:10.37,2013-11-25 03:54:00,
2013-11-24 22:55:00,19.8,-2.9,30.11,SSE,157,2.4,2.4,36,0.00,CLR,,0.00,WeatherDisplay:10.37,2013-11-25 03:55:00,
2013-11-24 22:57:00,19.8,-3.5,30.11,SW,225,2.4,2.4,35,0.00,CLR,,0.00,WeatherDisplay:10.37,2013-11-25 03:57:00,
2013-11-24 22:59:00,19.8,-3.5,30.11,SW,225,2.4,2.4,35,0.00,CLR,,0.00,WeatherDisplay:10.37,2013-11-25 03:59:00,
2013-11-24 23:01:00,19.8,-3.5,30.12,SSW,202,2.4,2.4,35,0.00,CLR,,0.00,WeatherDisplay:10.37,2013-11-25 04:01:00,
2013-11-24 23:02:00,19.9,-3.4,30.12,SSW,202,2.4,2.4,35,0.00,CLR,,0.00,WeatherDisplay:10.37,2013-11-25 04:02:00,
2013-11-24 23:05:00,19.9,-3.4,30.12,SW,225,2.4,2.4,35,0.00,CLR,,0.00,WeatherDisplay:10.37,2013-11-25 04:05:00,
2013-11-24 23:06:00,19.8,-3.5,30.12,SW,225,2.4,2.4,35,0.00,CLR,,0.00,WeatherDisplay:10.37,2013-11-25 04:06:00,
2013-11-24 23:07:00,19.8,-3.5,30.13,SW,225,2.4,2.4,35,0.00,CLR,,0.00,WeatherDisplay:10.37,2013-11-25 04:07:00,
2013-11-24 23:09:00,19.9,-2.8,30.13,NW,315,2.4,2.4,36,0.00,CLR,,0.00,WeatherDisplay:10.37,2013-11-25 04:09:00,
2013-11-24 23:10:00,19.9,-2.8,30.13,SSE,157,2.4,2.4,36,0.00,CLR,,0.00,WeatherDisplay:10.37,2013-11-25 04:10:00,
2013-11-24 23:11:00,19.9,-2.8,30.13,SSE,157,2.4,2.4,36,0.00,CLR,,0.00,WeatherDisplay:10.37,2013-11-25 04:11:00,
2013-11-24 23:13:00,19.9,-2.8,30.13,South,180,3.8,0.0,36,0.00,CLR,,0.00,WeatherDisplay:10.37,2013-11-25 04:13:00,
2013-11-24 23:15:00,19.9,-2.8,30.08,SW,225,3.8,3.8,36,0.00,CLR,,0.00,WeatherDisplay:10.37,2013-11-25 04:15:00,
2013-11-24 23:16:00,19.9,-2.8,30.08,SW,225,3.8,3.8,36,0.00,CLR,,0.00,WeatherDisplay:10.37,2013-11-25 04:16:00,
2013-11-24 23:18:00,19.9,-2.2,30.08,NNE,22,3.8,3.8,37,0.00,CLR,,0.00,WeatherDisplay:10.37,2013-11-25 04:18:00,
2013-11-24 23:19:00,19.9,-2.2,30.08,NNE,22,3.8,3.8,37,0.00,CLR,,0.00,WeatherDisplay:10.37,2013-11-25 04:19:00,
2013-11-24 23:21:00,19.9,-2.2,30.08,NW,315,3.8,0.0,37,0.00,CLR,,0.00,WeatherDisplay:10.37,2013-11-25 04:21:00,
2013-11-24 23:22:00,20.1,-2.0,30.08,SW,225,3.8,3.8,37,0.00,CLR,,0.00,WeatherDisplay:10.37,2013-11-25 04:22:00,
2013-11-24 23:24:00,20.1,-2.0,30.12,SW,225,1.2,0.0,37,0.00,CLR,,0.00,WeatherDisplay:10.37,2013-11-25 04:24:00,
2013-11-24 23:26:00,20.1,-2.0,30.13,South,180,1.2,0.0,37,0.00,CLR,,0.00,WeatherDisplay:10.37,2013-11-25 04:26:00,
2013-11-24 23:27:00,20.1,-1.5,30.09,South,180,1.2,0.0,38,0.00,CLR,,0.00,WeatherDisplay:10.37,2013-11-25 04:27:00,
2013-11-24 23:28:00,20.1,-1.5,30.09,South,180,1.2,0.0,38,0.00,CLR,,0.00,WeatherDisplay:10.37,2013-11-25 04:28:00,
2013-11-24 23:29:00,20.1,-1.5,30.09,South,180,1.2,1.2,38,0.00,CLR,,0.00,WeatherDisplay:10.37,2013-11-25 04:29:00,
2013-11-24 23:30:00,20.1,-1.5,30.09,South,180,1.2,1.2,38,0.00,CLR,,0.00,WeatherDisplay:10.37,2013-11-25 04:30:00,
2013-11-24 23:31:00,20.1,-1.5,30.15,South,180,1.2,1.2,38,0.00,CLR,,0.00,WeatherDisplay:10.37,2013-11-25 04:31:00,
2013-11-24 23:33:00,20.1,-1.5,30.14,SSW,202,1.2,1.2,38,0.00,CLR,,0.00,WeatherDisplay:10.37,2013-11-25 04:33:00,
2013-11-24 23:34:00,20.1,-1.5,30.14,SSW,202,1.2,1.3,38,0.00,CLR,,0.00,WeatherDisplay:10.37,2013-11-25 04:34:00,
2013-11-24 23:35:00,20.1,-2.0,30.12,SSW,202,1.3,1.3,37,0.00,CLR,,0.00,WeatherDisplay:10.37,2013-11-25 04:35:00,
2013-11-24 23:36:00,19.9,-2.2,30.13,South,180,1.3,1.3,37,0.00,CLR,,0.00,WeatherDisplay:10.37,2013-11-25 04:36:00,
2013-11-24 23:39:00,19.9,-2.2,30.06,SW,225,1.3,1.3,37,0.00,CLR,,0.00,WeatherDisplay:10.37,2013-11-25 04:39:00,
2013-11-24 23:40:00,19.9,-2.2,30.12,SW,225,1.3,1.3,37,0.00,CLR,,0.00,WeatherDisplay:10.37,2013-11-25 04:40:00,
2013-11-24 23:41:00,19.9,-2.2,30.12,SSW,202,1.3,1.3,37,0.00,CLR,,0.00,WeatherDisplay:10.37,2013-11-25 04:41:00,
2013-11-24 23:44:00,19.9,-1.6,30.14,WNW,292,2.4,2.4,38,0.00,CLR,,0.00,WeatherDisplay:10.37,2013-11-25 04:44:00,
2013-11-24 23:45:00,19.9,-1.6,30.14,WNW,292,2.4,2.4,38,0.00,CLR,,0.00,WeatherDisplay:10.37,2013-11-25 04:45:00,
2013-11-24 23:46:00,19.9,-1.6,30.11,SSE,157,2.4,2.4,38,0.00,CLR,,0.00,WeatherDisplay:10.37,2013-11-25 04:46:00,
2013-11-24 23:47:00,19.9,-1.6,30.11,NW,315,2.4,2.4,38,0.00,CLR,,0.00,WeatherDisplay:10.37,2013-11-25 04:47:00,
2013-11-24 23:49:00,19.9,-1.6,30.10,North,0,2.4,2.4,38,0.00,CLR,,0.00,WeatherDisplay:10.37,2013-11-25 04:49:00,
2013-11-24 23:50:00,19.9,-1.6,30.09,North,0,2.4,2.4,38,0.00,CLR,,0.00,WeatherDisplay:10.37,2013-11-25 04:50:00,
2013-11-24 23:51:00,19.9,-1.6,30.09,WSW,247,2.4,2.4,38,0.00,CLR,,0.00,WeatherDisplay:10.37,2013-11-25 04:51:00,
2013-11-24 23:53:00,19.9,-1.1,30.17,WSW,247,2.4,2.4,39,0.00,CLR,,0.00,WeatherDisplay:10.37,2013-11-25 04:53:00,
2013-11-24 23:55:00,19.9,-1.1,30.13,ENE,67,2.4,2.4,39,0.00,CLR,,0.00,WeatherDisplay:10.37,2013-11-25 04:55:00,
2013-11-24 23:56:00,19.9,-1.1,30.13,SW,225,2.4,2.4,39,0.00,CLR,,0.00,WeatherDisplay:10.37,2013-11-25 04:56:00,
2013-11-24 23:58:00,19.9,-1.1,30.12,East,90,2.4,2.4,39,0.00,CLR,,0.00,WeatherDisplay:10.37,2013-11-25 04:58:00,
2013-11-24 23:59:00,19.9,-1.1,30.12,East,90,2.4,2.4,39,0.00,CLR,,0.00,WeatherDisplay:10.37,2013-11-25 04:59:00,